Observation data for Reese Center on 05/25/2020      Previous  Date  Next       Current Mesonet Observations  Soil Data  Daily Summary Page  Observations in Plain Language
KREE 250500Z 12012KT 17/12 A2981 RMK A01 T01650124  RH  076%=      5-min Rain = 0
KREE 250501Z 12013KT 17/12 A2981 RMK A01 T01650123  RH  076%=      5-min Rain = 0
KREE 250502Z 12013KT 17/12 A2981 RMK A01 T01660122  RH  075%=      5-min Rain = 0
KREE 250503Z 11013KT 17/12 A2981 RMK A01 T01660124  RH  076%=      5-min Rain = 0
KREE 250504Z 11010KT 17/13 A2981 RMK A01 T01660125  RH  077%=      5-min Rain = 0
KREE 250505Z 12011KT 17/12 A2981 RMK A01 T01660124  RH  076%=      5-min Rain = 0
KREE 250506Z 11011KT 17/13 A2981 RMK A01 T01660125  RH  077%=      5-min Rain = 0
KREE 250507Z 12012KT 17/12 A2981 RMK A01 T01660124  RH  076%=      5-min Rain = 0
KREE 250508Z 12014KT 17/12 A2981 RMK A01 T01660121  RH  075%=      5-min Rain = 0
KREE 250509Z 12014KT 17/12 A2981 RMK A01 T01670120  RH  073%=      5-min Rain = 0
KREE 250510Z 11016KT 17/12 A2981 RMK A01 T01690118  RH  072%=      5-min Rain = 0
KREE 250511Z 11014KT 17/12 A2981 RMK A01 T01700119  RH  072%=      5-min Rain = 0
KREE 250512Z 11013KT 17/12 A2981 RMK A01 T01700121  RH  073%=      5-min Rain = 0
KREE 250513Z 10013KT 17/12 A2982 RMK A01 T01690121  RH  073%=      5-min Rain = 0
KREE 250514Z 11013KT 17/12 A2982 RMK A01 T01690120  RH  073%=      5-min Rain = 0
KREE 250515Z 11013KT 17/12 A2981 RMK A01 T01690121  RH  073%=      5-min Rain = 0
KREE 250516Z 11014KT 17/12 A2981 RMK A01 T01690119  RH  073%=      5-min Rain = 0
KREE 250517Z 11014KT 17/12 A2981 RMK A01 T01690119  RH  073%=      5-min Rain = 0
KREE 250518Z 11013KT 17/12 A2981 RMK A01 T01690120  RH  073%=      5-min Rain = 0
KREE 250519Z 11013KT 17/12 A2981 RMK A01 T01690120  RH  073%=      5-min Rain = 0
KREE 250520Z 12014KT 17/12 A2981 RMK A01 T01680121  RH  074%=      5-min Rain = 0
KREE 250521Z 12013KT 17/12 A2981 RMK A01 T01680119  RH  073%=      5-min Rain = 0
KREE 250522Z 13014KT 17/12 A2981 RMK A01 T01680120  RH  073%=      5-min Rain = 0
KREE 250523Z 12014KT 17/12 A2981 RMK A01 T01690120  RH  073%=      5-min Rain = 0
KREE 250524Z 12015KT 17/12 A2981 RMK A01 T01690119  RH  073%=      5-min Rain = 0
KREE 250525Z 12014KT 17/12 A2981 RMK A01 T01690118  RH  072%=      5-min Rain = 0
KREE 250526Z 13013KT 17/12 A2981 RMK A01 T01690120  RH  073%=      5-min Rain = 0
KREE 250527Z 13013KT 17/12 A2981 RMK A01 T01690120  RH  073%=      5-min Rain = 0
KREE 250528Z 12013KT 17/12 A2981 RMK A01 T01690121  RH  073%=      5-min Rain = 0
KREE 250529Z 12015KT 17/12 A2981 RMK A01 T01690121  RH  073%=      5-min Rain = 0
KREE 250530Z 12014KT 17/12 A2981 RMK A01 T01680121  RH  074%=      5-min Rain = 0
KREE 250531Z 12018G23KT 17/12 A2981 RMK A01 T01680119  RH  073%=      5-min Rain = 0
KREE 250532Z 12021G26KT 17/12 A2981 RMK A01 T01690117  RH  072%=      5-min Rain = 0
KREE 250533Z 12019KT 17/12 A2981 RMK A01 T01700117  RH  071%=      5-min Rain = 0
KREE 250534Z 12018KT 17/12 A2981 RMK A01 T01700118  RH  071%=      5-min Rain = 0
KREE 250535Z 12017G23KT 17/12 A2981 RMK A01 T01700118  RH  071%=      5-min Rain = 0
KREE 250536Z 12016KT 17/12 A2981 RMK A01 T01700119  RH  072%=      5-min Rain = 0
KREE 250537Z 12016G21KT 17/12 A2981 RMK A01 T01690119  RH  072%=      5-min Rain = 0
KREE 250538Z 12015KT 17/12 A2981 RMK A01 T01690120  RH  073%=      5-min Rain = 0
KREE 250539Z 12016KT 17/12 A2981 RMK A01 T01680119  RH  073%=      5-min Rain = 0
KREE 250540Z 12016KT 17/12 A2981 RMK A01 T01680118  RH  072%=      5-min Rain = 0
KREE 250541Z 12014KT 17/12 A2981 RMK A01 T01680119  RH  073%=      5-min Rain = 0
KREE 250542Z 12015KT 17/12 A2982 RMK A01 T01680120  RH  073%=      5-min Rain = 0
KREE 250543Z 12014KT 17/12 A2982 RMK A01 T01680120  RH  073%=      5-min Rain = 0
KREE 250544Z 12014KT 17/12 A2982 RMK A01 T01680121  RH  074%=      5-min Rain = 0
KREE 250545Z 12016KT 17/12 A2982 RMK A01 T01680120  RH  074%=      5-min Rain = 0
KREE 250546Z 12014KT 17/12 A2982 RMK A01 T01680120  RH  073%=      5-min Rain = 0
KREE 250547Z 12015KT 17/12 A2982 RMK A01 T01680121  RH  074%=      5-min Rain = 0
KREE 250548Z 12017G23KT 17/12 A2982 RMK A01 T01680120  RH  074%=      5-min Rain = 0
KREE 250549Z 12017KT 17/12 A2982 RMK A01 T01680119  RH  073%=      5-min Rain = 0
KREE 250550Z 12015KT 17/12 A2982 RMK A01 T01680120  RH  073%=      5-min Rain = 0
KREE 250551Z 12016KT 17/12 A2982 RMK A01 T01680121  RH  074%=      5-min Rain = 0
KREE 250552Z 12016KT 17/12 A2982 RMK A01 T01670121  RH  074%=      5-min Rain = 0
KREE 250553Z 12014KT 17/12 A2982 RMK A01 T01670121  RH  074%=      5-min Rain = 0
KREE 250554Z 12015KT 17/12 A2982 RMK A01 T01670122  RH  075%=      5-min Rain = 0
KREE 250555Z 12016KT 17/12 A2982 RMK A01 T01670121  RH  075%=      5-min Rain = 0
KREE 250556Z 12014KT 17/12 A2982 RMK A01 T01660121  RH  075%=      5-min Rain = 0
KREE 250557Z 13013KT 17/12 A2982 RMK A01 T01660122  RH  075%=      5-min Rain = 0
KREE 250558Z 13013KT 17/12 A2982 RMK A01 T01660122  RH  075%=      5-min Rain = 0
KREE 250559Z 13013KT 17/12 A2982 RMK A01 T01650123  RH  076%=      5-min Rain = 0
KREE 250600Z 13013KT 17/12 A2982 RMK A01 T01650123  RH  076%=      5-min Rain = 0
KREE 250601Z 12013KT 17/12 A2982 RMK A01 T01650124  RH  076%=      5-min Rain = 0
KREE 250602Z 13013KT 17/12 A2982 RMK A01 T01650123  RH  076%=      5-min Rain = 0
KREE 250603Z 13014KT 17/12 A2982 RMK A01 T01650123  RH  077%=      5-min Rain = 0
KREE 250604Z 13014KT 17/12 A2982 RMK A01 T01650123  RH  076%=      5-min Rain = 0
KREE 250605Z 13011KT 16/12 A2982 RMK A01 T01640124  RH  077%=      5-min Rain = 0
KREE 250606Z 13015KT 16/12 A2982 RMK A01 T01640123  RH  077%=      5-min Rain = 0
KREE 250607Z 13014KT 16/12 A2982 RMK A01 T01640122  RH  077%=      5-min Rain = 0
KREE 250608Z 13013KT 16/12 A2982 RMK A01 T01640123  RH  077%=      5-min Rain = 0
KREE 250609Z 13013KT 16/12 A2982 RMK A01 T01640123  RH  077%=      5-min Rain = 0
KREE 250610Z 13013KT 16/12 A2982 RMK A01 T01630123  RH  077%=      5-min Rain = 0
KREE 250611Z 13014KT 16/12 A2982 RMK A01 T01630124  RH  078%=      5-min Rain = 0
KREE 250612Z 12016KT 16/12 A2982 RMK A01 T01630122  RH  077%=      5-min Rain = 0
KREE 250613Z 12014KT 16/12 A2982 RMK A01 T01630122  RH  077%=      5-min Rain = 0
KREE 250614Z 12013KT 16/12 A2982 RMK A01 T01630123  RH  077%=      5-min Rain = 0
KREE 250615Z 13016KT 16/12 A2982 RMK A01 T01630123  RH  077%=      5-min Rain = 0
KREE 250616Z 12014G20KT 16/12 A2982 RMK A01 T01630121  RH  077%=      5-min Rain = 0
KREE 250617Z 12014KT 16/12 A2982 RMK A01 T01630122  RH  077%=      5-min Rain = 0
KREE 250618Z 12016KT 16/12 A2982 RMK A01 T01630122  RH  077%=      5-min Rain = 0
KREE 250619Z 12015KT 16/12 A2982 RMK A01 T01630121  RH  076%=      5-min Rain = 0
KREE 250620Z 12014KT 16/12 A2982 RMK A01 T01630121  RH  076%=      5-min Rain = 0
KREE 250621Z 12014KT 16/12 A2982 RMK A01 T01630121  RH  076%=      5-min Rain = 0
KREE 250622Z 12017KT 16/12 A2982 RMK A01 T01630121  RH  076%=      5-min Rain = 0
KREE 250623Z 12019KT 16/12 A2982 RMK A01 T01630120  RH  076%=      5-min Rain = 0
KREE 250624Z 12016G21KT 16/12 A2982 RMK A01 T01630119  RH  075%=      5-min Rain = 0
KREE 250625Z 12015G20KT 16/12 A2982 RMK A01 T01630120  RH  076%=      5-min Rain = 0
KREE 250626Z 13016KT 16/12 A2982 RMK A01 T01630120  RH  076%=      5-min Rain = 0
KREE 250627Z 13013KT 16/12 A2982 RMK A01 T01630122  RH  076%=      5-min Rain = 0
KREE 250628Z 13013KT 16/12 A2982 RMK A01 T01620123  RH  078%=      5-min Rain = 0
KREE 250629Z 13012KT 16/12 A2982 RMK A01 T01610123  RH  078%=      5-min Rain = 0
KREE 250630Z 13016KT 16/12 A2982 RMK A01 T01610122  RH  078%=      5-min Rain = 0
KREE 250631Z 13014KT 16/12 A2983 RMK A01 T01610123  RH  078%=      5-min Rain = 0
KREE 250632Z 12012KT 16/12 A2983 RMK A01 T01610124  RH  079%=      5-min Rain = 0
KREE 250633Z 12009KT 16/13 A2982 RMK A01 T01600125  RH  079%=      5-min Rain = 0
KREE 250634Z 13010KT 16/12 A2982 RMK A01 T01600124  RH  079%=      5-min Rain = 0
KREE 250635Z 12013G18KT 16/12 A2983 RMK A01 T01600124  RH  079%=      5-min Rain = 0
KREE 250636Z 12012KT 16/12 A2983 RMK A01 T01600123  RH  078%=      5-min Rain = 0
KREE 250637Z 13010KT 16/12 A2982 RMK A01 T01600124  RH  079%=      5-min Rain = 0
KREE 250638Z 13012KT 16/12 A2982 RMK A01 T01600122  RH  078%=      5-min Rain = 0
KREE 250639Z 14014G19KT 16/12 A2982 RMK A01 T01600121  RH  077%=      5-min Rain = 0
KREE 250640Z 12014KT 16/12 A2982 RMK A01 T01610121  RH  077%=      5-min Rain = 0
KREE 250641Z 12012KT 16/12 A2982 RMK A01 T01610121  RH  077%=      5-min Rain = 0
KREE 250642Z 12014KT 16/12 A2982 RMK A01 T01610122  RH  077%=      5-min Rain = 0
KREE 250643Z 12015KT 16/12 A2982 RMK A01 T01610121  RH  077%=      5-min Rain = 0
KREE 250644Z 11016KT 16/12 A2982 RMK A01 T01620118  RH  075%=      5-min Rain = 0
KREE 250645Z 12013G20KT 16/12 A2982 RMK A01 T01630119  RH  075%=      5-min Rain = 0
KREE 250646Z 12014G19KT 16/12 A2982 RMK A01 T01630118  RH  075%=      5-min Rain = 0
KREE 250647Z 12014KT 16/12 A2982 RMK A01 T01630119  RH  075%=      5-min Rain = 0
KREE 250648Z 12014G19KT 16/12 A2982 RMK A01 T01630120  RH  076%=      5-min Rain = 0
KREE 250649Z 12016KT 16/12 A2982 RMK A01 T01630119  RH  075%=      5-min Rain = 0
KREE 250650Z 12013KT 16/12 A2982 RMK A01 T01630120  RH  076%=      5-min Rain = 0
KREE 250651Z 12014KT 16/12 A2982 RMK A01 T01630121  RH  076%=      5-min Rain = 0
KREE 250652Z 12013G18KT 16/12 A2982 RMK A01 T01620121  RH  077%=      5-min Rain = 0
KREE 250653Z 12014G19KT 16/12 A2982 RMK A01 T01620120  RH  076%=      5-min Rain = 0
KREE 250654Z 12014G19KT 16/12 A2982 RMK A01 T01620121  RH  077%=      5-min Rain = 0
KREE 250655Z 12013KT 16/12 A2982 RMK A01 T01620122  RH  077%=      5-min Rain = 0
KREE 250656Z 12013KT 16/12 A2982 RMK A01 T01620122  RH  077%=      5-min Rain = 0
KREE 250657Z 12014G20KT 16/12 A2982 RMK A01 T01610122  RH  077%=      5-min Rain = 0
KREE 250658Z 12017KT 16/12 A2982 RMK A01 T01610121  RH  077%=      5-min Rain = 0
KREE 250659Z 12015KT 16/12 A2982 RMK A01 T01610120  RH  077%=      5-min Rain = 0
KREE 250700Z 12016KT 16/12 A2982 RMK A01 T01610121  RH  077%=      5-min Rain = 0
KREE 250701Z 12017G23KT 16/12 A2982 RMK A01 T01610122  RH  077%=      5-min Rain = 0
KREE 250702Z 12015KT 16/12 A2982 RMK A01 T01610122  RH  077%=      5-min Rain = 0
KREE 250703Z 11015KT 16/12 A2983 RMK A01 T01610123  RH  078%=      5-min Rain = 0
KREE 250704Z 12017KT 16/12 A2983 RMK A01 T01600122  RH  078%=      5-min Rain = 0
KREE 250705Z 12016KT 16/12 A2983 RMK A01 T01600121  RH  078%=      5-min Rain = 0
KREE 250706Z 12013G19KT 16/12 A2983 RMK A01 T01600122  RH  078%=      5-min Rain = 0
KREE 250707Z 11012KT 16/12 A2983 RMK A01 T01600121  RH  078%=      5-min Rain = 0
KREE 250708Z 12014KT 16/12 A2984 RMK A01 T01600123  RH  079%=      5-min Rain = 0
KREE 250709Z 12015KT 16/12 A2984 RMK A01 T01600122  RH  078%=      5-min Rain = 0
KREE 250710Z 12013KT 16/12 A2984 RMK A01 T01600122  RH  078%=      5-min Rain = 0
KREE 250711Z 13013KT 16/12 A2984 RMK A01 T01600122  RH  078%=      5-min Rain = 0
KREE 250712Z 12013KT 16/12 A2984 RMK A01 T01600123  RH  079%=      5-min Rain = 0
KREE 250713Z 12011KT 16/12 A2984 RMK A01 T01600123  RH  079%=      5-min Rain = 0
KREE 250714Z 13013KT 16/12 A2984 RMK A01 T01600124  RH  079%=      5-min Rain = 0
KREE 250715Z 13012KT 16/12 A2985 RMK A01 T01600123  RH  079%=      5-min Rain = 0
KREE 250716Z 12013KT 16/12 A2985 RMK A01 T01600123  RH  079%=      5-min Rain = 0
KREE 250717Z 13012KT 16/12 A2985 RMK A01 T01600121  RH  078%=      5-min Rain = 0
KREE 250718Z 13014KT 16/12 A2985 RMK A01 T01600122  RH  078%=      5-min Rain = 0
KREE 250719Z 12012KT 16/12 A2985 RMK A01 T01600122  RH  078%=      5-min Rain = 0
KREE 250720Z 12015KT 16/12 A2985 RMK A01 T01600122  RH  078%=      5-min Rain = 0
KREE 250721Z 12015KT 16/12 A2985 RMK A01 T01600121  RH  078%=      5-min Rain = 0
KREE 250722Z 12016G21KT 16/12 A2985 RMK A01 T01600122  RH  078%=      5-min Rain = 0
KREE 250723Z 11017G22KT 16/12 A2985 RMK A01 T01600122  RH  078%=      5-min Rain = 0
KREE 250724Z 11017G22KT 16/12 A2985 RMK A01 T01600122  RH  078%=      5-min Rain = 0
KREE 250725Z 11014KT 16/12 A2985 RMK A01 T01600123  RH  078%=      5-min Rain = 0
KREE 250726Z 12015KT 16/12 A2985 RMK A01 T01600124  RH  079%=      5-min Rain = 0
KREE 250727Z 11015KT 16/12 A2985 RMK A01 T01590123  RH  079%=      5-min Rain = 0
KREE 250728Z 11014G19KT 16/12 A2985 RMK A01 T01590124  RH  079%=      5-min Rain = 0
KREE 250729Z 11016G21KT 16/12 A2986 RMK A01 T01590123  RH  079%=      5-min Rain = 0
KREE 250730Z 11020G27KT 16/12 A2986 RMK A01 T01590123  RH  079%=      5-min Rain = 0
KREE 250731Z 11016G21KT 16/12 A2986 RMK A01 T01580124  RH  080%=      5-min Rain = 0
KREE 250732Z 11015KT 16/13 A2986 RMK A01 T01570125  RH  081%=      5-min Rain = 0
KREE 250733Z 11018KT 16/13 A2987 RMK A01 T01570125  RH  081%=      5-min Rain = 0
KREE 250734Z 11016KT 16/13 A2987 RMK A01 T01570125  RH  081%=      5-min Rain = 0
KREE 250735Z 11017KT 16/13 A2987 RMK A01 T01560125  RH  082%=      5-min Rain = 0
KREE 250736Z 11019G24KT 16/13 A2987 RMK A01 T01560125  RH  082%=      5-min Rain = 0
KREE 250737Z 11018KT 16/13 A2987 RMK A01 T01560125  RH  082%=      5-min Rain = 0
KREE 250738Z 10020G25KT 16/13 A2987 RMK A01 T01560126  RH  083%=      5-min Rain = 0
KREE 250739Z 10019KT 16/13 A2987 RMK A01 T01550125  RH  082%=      5-min Rain = 0
KREE 250740Z 11017KT 16/13 A2987 RMK A01 T01550126  RH  083%=      5-min Rain = 0
KREE 250741Z 11018KT 16/13 A2987 RMK A01 T01550127  RH  083%=      5-min Rain = 0
KREE 250742Z 11017KT 15/13 A2987 RMK A01 T01540127  RH  084%=      5-min Rain = 0
KREE 250743Z 11015KT 15/13 A2987 RMK A01 T01540127  RH  084%=      5-min Rain = 0
KREE 250744Z 11017G22KT 15/13 A2987 RMK A01 T01530128  RH  085%=      5-min Rain = 0
KREE 250745Z 11019KT 15/13 A2987 RMK A01 T01530127  RH  084%=      5-min Rain = 0
KREE 250746Z 11021KT 15/13 A2988 RMK A01 T01530127  RH  085%=      5-min Rain = 0
KREE 250747Z 11018G23KT 15/13 A2988 RMK A01 T01530128  RH  085%=      5-min Rain = 0
KREE 250748Z 11015KT 15/13 A2988 RMK A01 T01530129  RH  085%=      5-min Rain = 0
KREE 250749Z 11019G24KT 15/13 A2988 RMK A01 T01520129  RH  086%=      5-min Rain = 0
KREE 250750Z 11021KT 15/13 A2988 RMK A01 T01520128  RH  086%=      5-min Rain = 0
KREE 250751Z 11022G27KT 15/13 A2988 RMK A01 T01520129  RH  086%=      5-min Rain = 0
KREE 250752Z 11023KT 15/13 A2988 RMK A01 T01510129  RH  086%=      5-min Rain = 0
KREE 250753Z 11019KT 15/13 A2988 RMK A01 T01510129  RH  087%=      5-min Rain = 0
KREE 250754Z 11017G23KT 15/13 A2988 RMK A01 T01510130  RH  087%=      5-min Rain = 0
KREE 250755Z 11020KT 15/13 A2989 RMK A01 T01510130  RH  087%=      5-min Rain = 0
KREE 250756Z 10022KT 15/13 A2989 RMK A01 T01500129  RH  087%=      5-min Rain = 0
KREE 250757Z 11021G27KT 15/13 A2989 RMK A01 T01500130  RH  087%=      5-min Rain = 0
KREE 250758Z 10020G25KT 15/13 A2989 RMK A01 T01500130  RH  088%=      5-min Rain = 0
KREE 250759Z 11019KT 15/13 A2989 RMK A01 T01500130  RH  087%=      5-min Rain = 0
KREE 250800Z 11014KT 15/13 A2989 RMK A01 T01500130  RH  088%=      5-min Rain = 0
KREE 250801Z 11018G23KT 15/13 A2989 RMK A01 T01500131  RH  088%=      5-min Rain = 0
KREE 250802Z 11018KT 15/13 A2989 RMK A01 T01500130  RH  088%=      5-min Rain = 0
KREE 250803Z 11019KT 15/13 A2989 RMK A01 T01500130  RH  088%=      5-min Rain = 0
KREE 250804Z 11017G23KT 15/13 A2989 RMK A01 T01500130  RH  088%=      5-min Rain = 0
KREE 250805Z 12018KT 15/13 A2988 RMK A01 T01490130  RH  088%=      5-min Rain = 0
KREE 250806Z 12022KT 15/13 A2988 RMK A01 T01490130  RH  088%=      5-min Rain = 0
KREE 250807Z 12022KT 15/13 A2988 RMK A01 T01490129  RH  088%=      5-min Rain = 0
KREE 250808Z 12020KT 15/13 A2988 RMK A01 T01490129  RH  088%=      5-min Rain = 0
KREE 250809Z 12018G24KT 15/13 A2988 RMK A01 T01490129  RH  088%=      5-min Rain = 0
KREE 250810Z 12016KT 15/13 A2989 RMK A01 T01490130  RH  088%=      5-min Rain = 0
KREE 250811Z 11017KT 15/13 A2989 RMK A01 T01490131  RH  088%=      5-min Rain = 0
KREE 250812Z 11017G22KT 15/13 A2989 RMK A01 T01490131  RH  089%=      5-min Rain = 0
KREE 250813Z 11018KT 15/13 A2989 RMK A01 T01490130  RH  089%=      5-min Rain = 0
KREE 250814Z 11016KT 15/13 A2988 RMK A01 T01480131  RH  089%=      5-min Rain = 0
KREE 250815Z 11017KT 15/13 A2988 RMK A01 T01480130  RH  089%=      5-min Rain = 0
KREE 250816Z 12017G22KT 15/13 A2988 RMK A01 T01480130  RH  089%=      5-min Rain = 0
KREE 250817Z 12013KT 15/13 A2988 RMK A01 T01480130  RH  089%=      5-min Rain = 0
KREE 250818Z 12017KT 15/13 A2988 RMK A01 T01470130  RH  089%=      5-min Rain = 0
KREE 250819Z 12018KT 15/13 A2988 RMK A01 T01470130  RH  089%=      5-min Rain = 0
KREE 250820Z 12017KT 15/13 A2988 RMK A01 T01470130  RH  089%=      5-min Rain = 0
KREE 250821Z 12014KT 15/13 A2988 RMK A01 T01470130  RH  090%=      5-min Rain = 0
KREE 250822Z 12014KT 15/13 A2988 RMK A01 T01470131  RH  090%=      5-min Rain = 0
KREE 250823Z 12014KT 15/13 A2988 RMK A01 T01470131  RH  090%=      5-min Rain = 0
KREE 250824Z 12015G20KT 15/13 A2988 RMK A01 T01470131  RH  090%=      5-min Rain = 0
KREE 250825Z 12016KT 15/13 A2988 RMK A01 T01470130  RH  090%=      5-min Rain = 0
KREE 250826Z 12013KT 15/13 A2988 RMK A01 T01470129  RH  089%=      5-min Rain = 0
KREE 250827Z 13013KT 15/13 A2988 RMK A01 T01470129  RH  089%=      5-min Rain = 0
KREE 250828Z 13012KT 15/13 A2988 RMK A01 T01470129  RH  089%=      5-min Rain = 0
KREE 250829Z 12011KT 15/13 A2988 RMK A01 T01470130  RH  090%=      5-min Rain = 0
KREE 250830Z 12014KT 15/13 A2988 RMK A01 T01470130  RH  089%=      5-min Rain = 0
KREE 250831Z 12014KT 15/13 A2988 RMK A01 T01470129  RH  089%=      5-min Rain = 0
KREE 250832Z 12010KT 15/13 A2988 RMK A01 T01470129  RH  089%=      5-min Rain = 0
KREE 250833Z 12013KT 15/13 A2988 RMK A01 T01470129  RH  089%=      5-min Rain = 0
KREE 250834Z 12012KT 15/13 A2988 RMK A01 T01470129  RH  089%=      5-min Rain = 0
KREE 250835Z 12014G19KT 15/13 A2988 RMK A01 T01470129  RH  089%=      5-min Rain = 0
KREE 250836Z 12012KT 15/13 A2988 RMK A01 T01470128  RH  089%=      5-min Rain = 0
KREE 250837Z 11010KT 15/13 A2988 RMK A01 T01470129  RH  089%=      5-min Rain = 0
KREE 250838Z 12012KT 15/13 A2988 RMK A01 T01460129  RH  089%=      5-min Rain = 0
KREE 250839Z 12011KT 15/13 A2988 RMK A01 T01460128  RH  089%=      5-min Rain = 0
KREE 250840Z 11010KT 15/13 A2988 RMK A01 T01460128  RH  089%=      5-min Rain = 0
KREE 250841Z 11010KT 15/13 A2989 RMK A01 T01460129  RH  089%=      5-min Rain = 0
KREE 250842Z 11012KT 15/13 A2989 RMK A01 T01460128  RH  089%=      5-min Rain = 0
KREE 250843Z 11013KT 15/13 A2989 RMK A01 T01460128  RH  089%=      5-min Rain = 0
KREE 250844Z 11011KT 15/13 A2989 RMK A01 T01460128  RH  089%=      5-min Rain = 0
KREE 250845Z 10009KT 15/13 A2989 RMK A01 T01460128  RH  089%=      5-min Rain = 0
KREE 250846Z 10009KT 15/13 A2989 RMK A01 T01460128  RH  089%=      5-min Rain = 0
KREE 250847Z 10008KT 15/13 A2989 RMK A01 T01450128  RH  090%=      5-min Rain = 0
KREE 250848Z 11008KT 15/13 A2989 RMK A01 T01450128  RH  090%=      5-min Rain = 0
KREE 250849Z 11008KT 15/13 A2989 RMK A01 T01450129  RH  090%=      5-min Rain = 0
KREE 250850Z 11010KT 15/13 A2989 RMK A01 T01450128  RH  090%=      5-min Rain = 0
KREE 250851Z 10007KT 15/13 A2989 RMK A01 T01450128  RH  090%=      5-min Rain = 0
KREE 250852Z 10006KT 15/13 A2989 RMK A01 T01450128  RH  090%=      5-min Rain = 0
KREE 250853Z 11007KT 15/13 A2989 RMK A01 T01450128  RH  090%=      5-min Rain = 0
KREE 250854Z 11008KT 14/13 A2989 RMK A01 T01440129  RH  090%=      5-min Rain = 0
KREE 250855Z 11009KT 14/13 A2989 RMK A01 T01440128  RH  090%=      5-min Rain = 0
KREE 250856Z 11009KT 14/13 A299 RMK A01 T01440128  RH  090%=      5-min Rain = 0
KREE 250857Z 11008KT 14/13 A299 RMK A01 T01440128  RH  090%=      5-min Rain = 0
KREE 250858Z 11008KT 14/13 A299 RMK A01 T01440128  RH  090%=      5-min Rain = 0
KREE 250859Z 11007KT 14/13 A299 RMK A01 T01440129  RH  090%=      5-min Rain = 0
KREE 250900Z 11009KT 14/13 A299 RMK A01 T01440129  RH  091%=      5-min Rain = 0
KREE 250901Z 12009KT 14/13 A299 RMK A01 T01440128  RH  091%=      5-min Rain = 0
KREE 250902Z 11010KT 14/13 A299 RMK A01 T01430128  RH  091%=      5-min Rain = 0
KREE 250903Z 11010KT 14/13 A2989 RMK A01 T01430128  RH  090%=      5-min Rain = 0
KREE 250904Z 11009KT 14/13 A299 RMK A01 T01440128  RH  090%=      5-min Rain = 0
KREE 250905Z 11009KT 14/13 A299 RMK A01 T01440128  RH  090%=      5-min Rain = 0
KREE 250906Z 11009KT 14/13 A299 RMK A01 T01430128  RH  090%=      5-min Rain = 0
KREE 250907Z 11008KT 14/13 A299 RMK A01 T01440128  RH  091%=      5-min Rain = 0
KREE 250908Z 11007KT 14/13 A299 RMK A01 T01430129  RH  091%=      5-min Rain = 0
KREE 250909Z 11007KT 14/13 A299 RMK A01 T01430129  RH  091%=      5-min Rain = 0
KREE 250910Z 11007KT 14/13 A299 RMK A01 T01430129  RH  091%=      5-min Rain = 0
KREE 250911Z 11006KT 14/13 A299 RMK A01 T01430129  RH  091%=      5-min Rain = 0
KREE 250912Z 11006KT 14/13 A299 RMK A01 T01430129  RH  091%=      5-min Rain = 0
KREE 250913Z 10005KT 14/13 A299 RMK A01 T01430128  RH  091%=      5-min Rain = 0
KREE 250914Z 10005KT 14/13 A299 RMK A01 T01430128  RH  091%=      5-min Rain = 0
KREE 250915Z 10005KT 14/13 A299 RMK A01 T01430128  RH  091%=      5-min Rain = 0
KREE 250916Z 09005KT 14/13 A299 RMK A01 T01430128  RH  091%=      5-min Rain = 0
KREE 250917Z 09005KT 14/13 A299 RMK A01 T01420128  RH  091%=      5-min Rain = 0
KREE 250918Z 09005KT 14/13 A299 RMK A01 T01420128  RH  091%=      5-min Rain = 0
KREE 250919Z 09005KT 14/13 A299 RMK A01 T01420128  RH  091%=      5-min Rain = 0
KREE 250920Z 09005KT 14/13 A299 RMK A01 T01420128  RH  091%=      5-min Rain = 0
KREE 250921Z 09004KT 14/13 A2989 RMK A01 T01410128  RH  092%=      5-min Rain = 0
KREE 250922Z 08004KT 14/13 A2989 RMK A01 T01410128  RH  092%=      5-min Rain = 0
KREE 250923Z 08004KT 14/13 A2989 RMK A01 T01400127  RH  092%=      5-min Rain = 0
KREE 250924Z 08004KT 14/13 A2989 RMK A01 T01400127  RH  092%=      5-min Rain = 0
KREE 250925Z 08004KT 14/13 A2989 RMK A01 T01390127  RH  092%=      5-min Rain = 0
KREE 250926Z 08005KT 14/13 A2989 RMK A01 T01390127  RH  093%=      5-min Rain = 0
KREE 250927Z 08005KT 14/13 A2989 RMK A01 T01380127  RH  093%=      5-min Rain = 0
KREE 250928Z 08004KT 14/13 A2989 RMK A01 T01380127  RH  093%=      5-min Rain = 0
KREE 250929Z 07005KT 14/13 A2989 RMK A01 T01380128  RH  093%=      5-min Rain = 0
KREE 250930Z 06005KT 14/13 A2989 RMK A01 T01390128  RH  093%=      5-min Rain = 0
KREE 250931Z 05005KT 14/13 A299 RMK A01 T01390128  RH  093%=      5-min Rain = 0
KREE 250932Z 05006KT 14/13 A299 RMK A01 T01390128  RH  093%=      5-min Rain = 0
KREE 250933Z 04006KT 14/13 A299 RMK A01 T01390127  RH  092%=      5-min Rain = 0
KREE 250934Z 04006KT 14/13 A299 RMK A01 T01390127  RH  092%=      5-min Rain = 0
KREE 250935Z 03006KT 14/13 A299 RMK A01 T01390127  RH  093%=      5-min Rain = 0
KREE 250936Z 03006KT 14/13 A2989 RMK A01 T01380127  RH  093%=      5-min Rain = 0
KREE 250937Z 02006KT 14/13 A2989 RMK A01 T01380126  RH  093%=      5-min Rain = 0
KREE 250938Z 02006KT 14/13 A2989 RMK A01 T01370126  RH  093%=      5-min Rain = 0
KREE 250939Z 02007KT 14/13 A2989 RMK A01 T01370125  RH  093%=      5-min Rain = 0
KREE 250940Z 02007KT 14/13 A2989 RMK A01 T01360125  RH  093%=      5-min Rain = 0
KREE 250941Z 02007KT 14/13 A2989 RMK A01 T01350125  RH  094%=      5-min Rain = 0
KREE 250942Z 02007KT 14/13 A2989 RMK A01 T01350126  RH  094%=      5-min Rain = 0
KREE 250943Z 02006KT 14/13 A2989 RMK A01 T01350126  RH  095%=      5-min Rain = 0
KREE 250944Z 02005KT 14/13 A2989 RMK A01 T01350127  RH  095%=      5-min Rain = 0
KREE 250945Z 02005KT 14/13 A2989 RMK A01 T01350127  RH  095%=      5-min Rain = 0
KREE 250946Z 02006KT 14/13 A2989 RMK A01 T01350127  RH  095%=      5-min Rain = 0
KREE 250947Z 02006KT 14/13 A2989 RMK A01 T01350127  RH  095%=      5-min Rain = 0
KREE 250948Z 01006KT 14/13 A2989 RMK A01 T01350128  RH  095%=      5-min Rain = 0
KREE 250949Z 01006KT 14/13 A2989 RMK A01 T01350128  RH  095%=      5-min Rain = 0
KREE 250950Z 01007KT 14/13 A2989 RMK A01 T01350128  RH  095%=      5-min Rain = 0
KREE 250951Z 02006KT 14/13 A2989 RMK A01 T01350128  RH  095%=      5-min Rain = 0
KREE 250952Z 01007KT 14/13 A299 RMK A01 T01350128  RH  095%=      5-min Rain = 0
KREE 250953Z 01006KT 14/13 A299 RMK A01 T01350128  RH  096%=      5-min Rain = 0
KREE 250954Z 01006KT 14/13 A299 RMK A01 T01350128  RH  096%=      5-min Rain = 0
KREE 250955Z 01006KT 14/13 A299 RMK A01 T01350128  RH  096%=      5-min Rain = 0
KREE 250956Z 01006KT 14/13 A299 RMK A01 T01350128  RH  095%=      5-min Rain = 0
KREE 250957Z 01006KT 14/13 A299 RMK A01 T01350128  RH  095%=      5-min Rain = 0
KREE 250958Z 01006KT 14/13 A299 RMK A01 T01350128  RH  095%=      5-min Rain = 0
KREE 250959Z 01006KT 14/13 A299 RMK A01 T01350128  RH  095%=      5-min Rain = 0
KREE 251000Z 01006KT 14/13 A299 RMK A01 T01350128  RH  095%=      5-min Rain = 0
KREE 251001Z 01006KT 14/13 A299 RMK A01 T01350128  RH  095%=      5-min Rain = 0
KREE 251002Z 01006KT 14/13 A299 RMK A01 T01350127  RH  095%=      5-min Rain = 0
KREE 251003Z 02005KT 14/13 A299 RMK A01 T01350127  RH  095%=      5-min Rain = 0
KREE 251004Z 02005KT 14/13 A2989 RMK A01 T01350127  RH  095%=      5-min Rain = 0
KREE 251005Z 02004KT 14/13 A2989 RMK A01 T01350127  RH  095%=      5-min Rain = 0
KREE 251006Z 02004KT 14/13 A2989 RMK A01 T01350127  RH  095%=      5-min Rain = 0
KREE 251007Z 02005KT 13/13 A2989 RMK A01 T01340127  RH  095%=      5-min Rain = 0
KREE 251008Z 03004KT 13/13 A2989 RMK A01 T01340127  RH  095%=      5-min Rain = 0
KREE 251009Z 03004KT 13/13 A2989 RMK A01 T01340127  RH  095%=      5-min Rain = 0
KREE 251010Z 04004KT 13/13 A2988 RMK A01 T01340127  RH  095%=      5-min Rain = 0
KREE 251011Z 04004KT 13/13 A2988 RMK A01 T01340127  RH  095%=      5-min Rain = 0
KREE 251012Z 04004KT 13/13 A2988 RMK A01 T01340127  RH  095%=      5-min Rain = 0
KREE 251013Z 04003KT 13/13 A2989 RMK A01 T01340127  RH  095%=      5-min Rain = 0
KREE 251014Z 04003KT 13/13 A2989 RMK A01 T01340127  RH  095%=      5-min Rain = 0
KREE 251015Z 04004KT 13/13 A2989 RMK A01 T01340127  RH  095%=      5-min Rain = 0
KREE 251016Z 03004KT 13/13 A2989 RMK A01 T01340126  RH  095%=      5-min Rain = 0
KREE 251017Z 03004KT 13/13 A2989 RMK A01 T01340126  RH  095%=      5-min Rain = 0
KREE 251018Z 03004KT 13/13 A2989 RMK A01 T01340126  RH  095%=      5-min Rain = 0
KREE 251019Z 03003KT 13/13 A2989 RMK A01 T01340125  RH  095%=      5-min Rain = 0
KREE 251020Z 03004KT 13/13 A2989 RMK A01 T01330125  RH  095%=      5-min Rain = 0
KREE 251021Z 03003KT 13/12 A2989 RMK A01 T01330124  RH  095%=      5-min Rain = 0
KREE 251022Z 03003KT 13/12 A2989 RMK A01 T01330124  RH  095%=      5-min Rain = 0
KREE 251023Z 03003KT 13/13 A2989 RMK A01 T01330125  RH  095%=      5-min Rain = 0
KREE 251024Z 03003KT 13/13 A2989 RMK A01 T01330125  RH  095%=      5-min Rain = 0
KREE 251025Z 03003KT 13/13 A2989 RMK A01 T01330125  RH  095%=      5-min Rain = 0
KREE 251026Z 03003KT 13/13 A2989 RMK A01 T01330125  RH  095%=      5-min Rain = 0
KREE 251027Z 03003KT 13/13 A2989 RMK A01 T01330125  RH  095%=      5-min Rain = 0
KREE 251028Z 02003KT 13/12 A2989 RMK A01 T01320124  RH  095%=      5-min Rain = 0
KREE 251029Z 01004KT 13/12 A2989 RMK A01 T01320124  RH  095%=      5-min Rain = 0
KREE 251030Z 01004KT 13/12 A2989 RMK A01 T01310123  RH  095%=      5-min Rain = 0
KREE 251031Z 01004KT 13/12 A2989 RMK A01 T01310123  RH  095%=      5-min Rain = 0
KREE 251032Z 00004KT 13/12 A2989 RMK A01 T01300123  RH  095%=      5-min Rain = 0
KREE 251033Z 00004KT 13/12 A2989 RMK A01 T01290122  RH  095%=      5-min Rain = 0
KREE 251034Z 35005KT 13/12 A2989 RMK A01 T01290122  RH  095%=      5-min Rain = 0
KREE 251035Z 35005KT 13/12 A2989 RMK A01 T01280121  RH  096%=      5-min Rain = 0
KREE 251036Z 35005KT 13/12 A2989 RMK A01 T01280122  RH  096%=      5-min Rain = 0
KREE 251037Z 35005KT 13/12 A2989 RMK A01 T01280123  RH  096%=      5-min Rain = 0
KREE 251038Z 35005KT 13/12 A2989 RMK A01 T01290123  RH  097%=      5-min Rain = 0
KREE 251039Z 35005KT 13/12 A2989 RMK A01 T01290124  RH  097%=      5-min Rain = 0
KREE 251040Z 35005KT 13/13 A2989 RMK A01 T01300125  RH  097%=      5-min Rain = 0
KREE 251041Z 34005KT 13/13 A2989 RMK A01 T01300125  RH  097%=      5-min Rain = 0
KREE 251042Z 33005KT 13/13 A2989 RMK A01 T01300125  RH  097%=      5-min Rain = 0
KREE 251043Z 33005KT 13/13 A2989 RMK A01 T01300125  RH  097%=      5-min Rain = 0
KREE 251044Z 33005KT 13/13 A2989 RMK A01 T01300125  RH  097%=      5-min Rain = 0
KREE 251045Z 33005KT 13/13 A2989 RMK A01 T01300125  RH  097%=      5-min Rain = 0
KREE 251046Z 33005KT 13/12 A2989 RMK A01 T01300124  RH  097%=      5-min Rain = 0
KREE 251047Z 33004KT 13/12 A2989 RMK A01 T01300124  RH  097%=      5-min Rain = 0
KREE 251048Z 33005KT 13/12 A2989 RMK A01 T01300124  RH  096%=      5-min Rain = 0
KREE 251049Z 33005KT 13/12 A2988 RMK A01 T01290124  RH  096%=      5-min Rain = 0
KREE 251050Z 33005KT 13/12 A2988 RMK A01 T01290124  RH  096%=      5-min Rain = 0
KREE 251051Z 33005KT 13/12 A2988 RMK A01 T01290123  RH  096%=      5-min Rain = 0
KREE 251052Z 33005KT 13/12 A2988 RMK A01 T01290123  RH  096%=      5-min Rain = 0
KREE 251053Z 33005KT 13/12 A2988 RMK A01 T01290124  RH  097%=      5-min Rain = 0
KREE 251054Z 33005KT 13/12 A2988 RMK A01 T01290124  RH  097%=      5-min Rain = 0
KREE 251055Z 33005KT 13/12 A2988 RMK A01 T01290124  RH  097%=      5-min Rain = 0
KREE 251056Z 33006KT 13/12 A2988 RMK A01 T01290124  RH  097%=      5-min Rain = 0
KREE 251057Z 33005KT 13/12 A2989 RMK A01 T01290124  RH  097%=      5-min Rain = 0
KREE 251058Z 33006KT 13/12 A2989 RMK A01 T01290124  RH  097%=      5-min Rain = 0
KREE 251059Z 33006KT 13/12 A2989 RMK A01 T01290124  RH  097%=      5-min Rain = 0
KREE 251100Z 33006KT 13/12 A2989 RMK A01 T01290124  RH  096%=      5-min Rain = 0
KREE 251101Z 33005KT 13/12 A2989 RMK A01 T01290123  RH  096%=      5-min Rain = 0
KREE 251102Z 33005KT 13/12 A2989 RMK A01 T01280122  RH  096%=      5-min Rain = 0
KREE 251103Z 33004KT 13/12 A2989 RMK A01 T01280122  RH  096%=      5-min Rain = 0
KREE 251104Z 32004KT 13/12 A2989 RMK A01 T01270121  RH  096%=      5-min Rain = 0
KREE 251105Z 33004KT 13/12 A2988 RMK A01 T01270121  RH  096%=      5-min Rain = 0
KREE 251106Z 32004KT 13/12 A2988 RMK A01 T01260121  RH  096%=      5-min Rain = 0
KREE 251107Z 33004KT 13/12 A2988 RMK A01 T01260121  RH  097%=      5-min Rain = 0
KREE 251108Z 33004KT 13/12 A2988 RMK A01 T01260121  RH  097%=      5-min Rain = 0
KREE 251109Z 33004KT 13/12 A2988 RMK A01 T01260121  RH  097%=      5-min Rain = 0
KREE 251110Z 34005KT 13/12 A2988 RMK A01 T01260121  RH  097%=      5-min Rain = 0
KREE 251111Z 34006KT 13/12 A2988 RMK A01 T01260121  RH  097%=      5-min Rain = 0
KREE 251112Z 34007KT 13/12 A2988 RMK A01 T01260121  RH  097%=      5-min Rain = 0
KREE 251113Z 34007KT 13/12 A2988 RMK A01 T01270121  RH  097%=      5-min Rain = 0
KREE 251114Z 34007KT 13/12 A2988 RMK A01 T01270122  RH  097%=      5-min Rain = 0
KREE 251115Z 34007KT 13/12 A2988 RMK A01 T01270122  RH  097%=      5-min Rain = 0
KREE 251116Z 34006KT 13/12 A2988 RMK A01 T01270122  RH  097%=      5-min Rain = 0
KREE 251117Z 33006KT 13/12 A2988 RMK A01 T01270122  RH  097%=      5-min Rain = 0
KREE 251118Z 33005KT 13/12 A2988 RMK A01 T01270121  RH  096%=      5-min Rain = 0
KREE 251119Z 32005KT 13/12 A2988 RMK A01 T01270121  RH  096%=      5-min Rain = 0
KREE 251120Z 32004KT 13/12 A2988 RMK A01 T01270121  RH  096%=      5-min Rain = 0
KREE 251121Z 31005KT 13/12 A2988 RMK A01 T01260121  RH  096%=      5-min Rain = 0
KREE 251122Z 31005KT 13/12 A2988 RMK A01 T01260121  RH  096%=      5-min Rain = 0
KREE 251123Z 31005KT 13/12 A2988 RMK A01 T01260121  RH  097%=      5-min Rain = 0
KREE 251124Z 31005KT 13/12 A2988 RMK A01 T01260121  RH  097%=      5-min Rain = 0
KREE 251125Z 31005KT 13/12 A2988 RMK A01 T01260121  RH  096%=      5-min Rain = 0
KREE 251126Z 31005KT 13/12 A2988 RMK A01 T01260120  RH  096%=      5-min Rain = 0
KREE 251127Z 32005KT 13/12 A2988 RMK A01 T01250120  RH  096%=      5-min Rain = 0
KREE 251128Z 31004KT 13/12 A2988 RMK A01 T01250119  RH  096%=      5-min Rain = 0
KREE 251129Z 31005KT 13/12 A2988 RMK A01 T01250119  RH  096%=      5-min Rain = 0
KREE 251130Z 32006KT 12/12 A2988 RMK A01 T01240119  RH  096%=      5-min Rain = 0
KREE 251131Z 32008KT 12/12 A2988 RMK A01 T01240118  RH  096%=      5-min Rain = 0
KREE 251132Z 31007KT 12/12 A2988 RMK A01 T01240119  RH  097%=      5-min Rain = 0
KREE 251133Z 31006KT 13/12 A2988 RMK A01 T01250120  RH  097%=      5-min Rain = 0
KREE 251134Z 31007KT 13/12 A2988 RMK A01 T01250120  RH  097%=      5-min Rain = 0
KREE 251135Z 30006KT 13/12 A2988 RMK A01 T01260121  RH  097%=      5-min Rain = 0
KREE 251136Z 30005KT 13/12 A2988 RMK A01 T01260120  RH  097%=      5-min Rain = 0
KREE 251137Z 29005KT 13/12 A2988 RMK A01 T01260120  RH  097%=      5-min Rain = 0
KREE 251138Z 29004KT 13/12 A2988 RMK A01 T01260120  RH  096%=      5-min Rain = 0
KREE 251139Z 30004KT 13/12 A2988 RMK A01 T01260120  RH  096%=      5-min Rain = 0
KREE 251140Z 31005KT 13/12 A2988 RMK A01 T01260120  RH  097%=      5-min Rain = 0
KREE 251141Z 31006KT 13/12 A2988 RMK A01 T01260120  RH  096%=      5-min Rain = 0
KREE 251142Z 31006KT 13/12 A2988 RMK A01 T01260120  RH  096%=      5-min Rain = 0
KREE 251143Z 31006KT 13/12 A2988 RMK A01 T01260121  RH  097%=      5-min Rain = 0
KREE 251144Z 31006KT 13/12 A2988 RMK A01 T01260121  RH  097%=      5-min Rain = 0
KREE 251145Z 31006KT 13/12 A2988 RMK A01 T01260121  RH  096%=      5-min Rain = 0
KREE 251146Z 31006KT 13/12 A2989 RMK A01 T01260120  RH  096%=      5-min Rain = 0
KREE 251147Z 31006KT 13/12 A2989 RMK A01 T01260120  RH  096%=      5-min Rain = 0
KREE 251148Z 31007KT 13/12 A2989 RMK A01 T01260120  RH  096%=      5-min Rain = 0
KREE 251149Z 32007KT 13/12 A2989 RMK A01 T01250119  RH  096%=      5-min Rain = 0
KREE 251150Z 33008KT 13/12 A2989 RMK A01 T01250119  RH  096%=      5-min Rain = 0
KREE 251151Z 33009KT 13/12 A2989 RMK A01 T01250119  RH  096%=      5-min Rain = 0
KREE 251152Z 34009KT 13/12 A2989 RMK A01 T01250120  RH  097%=      5-min Rain = 0
KREE 251153Z 34009KT 13/12 A299 RMK A01 T01260121  RH  097%=      5-min Rain = 0
KREE 251154Z 34009KT 13/12 A299 RMK A01 T01260121  RH  097%=      5-min Rain = 0
KREE 251155Z 34009KT 13/12 A299 RMK A01 T01260120  RH  097%=      5-min Rain = 0
KREE 251156Z 35010KT 13/12 A299 RMK A01 T01260120  RH  097%=      5-min Rain = 0
KREE 251157Z 35009KT 13/12 A299 RMK A01 T01260121  RH  097%=      5-min Rain = 0
KREE 251158Z 35011KT 13/12 A299 RMK A01 T01260121  RH  097%=      5-min Rain = 0
KREE 251159Z 35011KT 13/12 A299 RMK A01 T01260121  RH  097%=      5-min Rain = 0
KREE 251200Z 35012KT 13/12 A2991 RMK A01 T01270122  RH  097%=      5-min Rain = 0
KREE 251201Z 35011KT 13/12 A2991 RMK A01 T01280122  RH  097%=      5-min Rain = 0
KREE 251202Z 35011KT 13/12 A2991 RMK A01 T01280123  RH  096%=      5-min Rain = 0
KREE 251203Z 35011KT 13/12 A2991 RMK A01 T01290123  RH  096%=      5-min Rain = 0
KREE 251204Z 35013KT 13/12 A2991 RMK A01 T01290122  RH  096%=      5-min Rain = 0
KREE 251205Z 35014KT 13/12 A2991 RMK A01 T01290121  RH  095%=      5-min Rain = 0
KREE 251206Z 35014G19KT 13/12 A2991 RMK A01 T01290120  RH  094%=      5-min Rain = 0
KREE 251207Z 35013KT 13/12 A2991 RMK A01 T01300120  RH  094%=      5-min Rain = 0
KREE 251208Z 35013KT 13/12 A2992 RMK A01 T01300120  RH  094%=      5-min Rain = 0
KREE 251209Z 35014KT 13/12 A2992 RMK A01 T01290119  RH  094%=      5-min Rain = 0
KREE 251210Z 35012KT 13/12 A2992 RMK A01 T01290119  RH  093%=      5-min Rain = 0
KREE 251211Z 34012KT 13/12 A2992 RMK A01 T01290119  RH  093%=      5-min Rain = 0
KREE 251212Z 34011KT 13/12 A2992 RMK A01 T01290119  RH  093%=      5-min Rain = 0
KREE 251213Z 35011KT 13/12 A2992 RMK A01 T01290118  RH  093%=      5-min Rain = 0
KREE 251214Z 34010KT 13/12 A2992 RMK A01 T01280118  RH  093%=      5-min Rain = 0
KREE 251215Z 35010KT 13/12 A2992 RMK A01 T01280118  RH  093%=      5-min Rain = 0
KREE 251216Z 35012KT 13/12 A2992 RMK A01 T01280117  RH  093%=      5-min Rain = 0
KREE 251217Z 34012KT 13/12 A2992 RMK A01 T01270117  RH  093%=      5-min Rain = 0
KREE 251218Z 35012KT 13/12 A2992 RMK A01 T01270117  RH  093%=      5-min Rain = 0
KREE 251219Z 34012KT 13/12 A2992 RMK A01 T01270117  RH  093%=      5-min Rain = 0
KREE 251220Z 34011KT 13/12 A2992 RMK A01 T01270116  RH  093%=      5-min Rain = 0
KREE 251221Z 34010KT 13/12 A2992 RMK A01 T01270116  RH  093%=      5-min Rain = 0
KREE 251222Z 34011KT 13/12 A2992 RMK A01 T01260116  RH  093%=      5-min Rain = 0
KREE 251223Z 34010KT 13/12 A2992 RMK A01 T01260116  RH  093%=      5-min Rain = 0
KREE 251224Z 35010KT 13/12 A2992 RMK A01 T01260116  RH  093%=      5-min Rain = 0
KREE 251225Z 35011KT 13/12 A2993 RMK A01 T01260116  RH  093%=      5-min Rain = 0
KREE 251226Z 35012KT 13/12 A2993 RMK A01 T01260116  RH  093%=      5-min Rain = 0
KREE 251227Z 35010KT 13/12 A2993 RMK A01 T01260116  RH  093%=      5-min Rain = 0
KREE 251228Z 35011KT 13/12 A2993 RMK A01 T01260116  RH  094%=      5-min Rain = 0
KREE 251229Z 35010KT 13/12 A2993 RMK A01 T01260116  RH  094%=      5-min Rain = 0
KREE 251230Z 35008KT 13/12 A2993 RMK A01 T01260116  RH  094%=      5-min Rain = 0
KREE 251231Z 35009KT 13/12 A2993 RMK A01 T01260116  RH  094%=      5-min Rain = 0
KREE 251232Z 35009KT 13/12 A2993 RMK A01 T01260116  RH  094%=      5-min Rain = 0
KREE 251233Z 36009KT 13/12 A2993 RMK A01 T01260116  RH  094%=      5-min Rain = 0
KREE 251234Z 36010KT 13/12 A2993 RMK A01 T01260117  RH  094%=      5-min Rain = 0
KREE 251235Z 00010KT 13/12 A2993 RMK A01 T01270118  RH  094%=      5-min Rain = 0
KREE 251236Z 00011KT 13/12 A2993 RMK A01 T01280119  RH  094%=      5-min Rain = 0
KREE 251237Z 00011KT 13/12 A2993 RMK A01 T01290119  RH  094%=      5-min Rain = 0
KREE 251238Z 00011KT 13/12 A2993 RMK A01 T01290119  RH  093%=      5-min Rain = 0
KREE 251239Z 00011KT 13/12 A2993 RMK A01 T01300119  RH  093%=      5-min Rain = 0
KREE 251240Z 36012KT 13/12 A2993 RMK A01 T01310120  RH  093%=      5-min Rain = 0
KREE 251241Z 00012KT 13/12 A2993 RMK A01 T01310119  RH  093%=      5-min Rain = 0
KREE 251242Z 00013KT 13/12 A2993 RMK A01 T01320120  RH  092%=      5-min Rain = 0
KREE 251243Z 36013KT 13/12 A2993 RMK A01 T01330120  RH  092%=      5-min Rain = 0
KREE 251244Z 00012KT 13/12 A2993 RMK A01 T01330120  RH  092%=      5-min Rain = 0
KREE 251245Z 36013KT 13/12 A2993 RMK A01 T01340119  RH  091%=      5-min Rain = 0
KREE 251246Z 00012KT 13/12 A2993 RMK A01 T01340119  RH  091%=      5-min Rain = 0
KREE 251247Z 00014G19KT 14/12 A2993 RMK A01 T01350118  RH  090%=      5-min Rain = 0
KREE 251248Z 00013G18KT 14/12 A2993 RMK A01 T01350117  RH  089%=      5-min Rain = 0
KREE 251249Z 00014KT 14/12 A2993 RMK A01 T01350115  RH  087%=      5-min Rain = 0
KREE 251250Z 00014KT 14/11 A2993 RMK A01 T01360114  RH  087%=      5-min Rain = 0
KREE 251251Z 01014KT 14/11 A2993 RMK A01 T01360113  RH  086%=      5-min Rain = 0
KREE 251252Z 00015KT 14/11 A2993 RMK A01 T01360113  RH  086%=      5-min Rain = 0
KREE 251253Z 01014KT 14/11 A2993 RMK A01 T01360112  RH  085%=      5-min Rain = 0
KREE 251254Z 01013KT 14/11 A2993 RMK A01 T01360113  RH  086%=      5-min Rain = 0
KREE 251255Z 01015KT 14/11 A2993 RMK A01 T01360112  RH  085%=      5-min Rain = 0
KREE 251256Z 01014KT 14/11 A2993 RMK A01 T01360110  RH  085%=      5-min Rain = 0
KREE 251257Z 01014KT 14/11 A2993 RMK A01 T01360110  RH  084%=      5-min Rain = 0
KREE 251258Z 01013KT 14/11 A2993 RMK A01 T01360111  RH  085%=      5-min Rain = 0
KREE 251259Z 02014KT 14/11 A2994 RMK A01 T01360110  RH  085%=      5-min Rain = 0
KREE 251300Z 01013KT 14/11 A2994 RMK A01 T01360110  RH  084%=      5-min Rain = 0
KREE 251301Z 01012KT 14/11 A2994 RMK A01 T01360110  RH  084%=      5-min Rain = 0
KREE 251302Z 01014KT 14/11 A2994 RMK A01 T01360108  RH  083%=      5-min Rain = 0
KREE 251303Z 01012G18KT 14/11 A2994 RMK A01 T01360108  RH  083%=      5-min Rain = 0
KREE 251304Z 02015KT 14/11 A2994 RMK A01 T01370105  RH  081%=      5-min Rain = 0
KREE 251305Z 01015KT 14/10 A2994 RMK A01 T01370102  RH  079%=      5-min Rain = 0
KREE 251306Z 02014KT 14/10 A2994 RMK A01 T01360100  RH  079%=      5-min Rain = 0
KREE 251307Z 02014KT 14/10 A2994 RMK A01 T01360102  RH  080%=      5-min Rain = 0
KREE 251308Z 01014KT 14/10 A2994 RMK A01 T01360101  RH  079%=      5-min Rain = 0
KREE 251309Z 01013KT 14/10 A2994 RMK A01 T01360100  RH  079%=      5-min Rain = 0
KREE 251310Z 01013KT 14/10 A2994 RMK A01 T01360099  RH  078%=      5-min Rain = 0
KREE 251311Z 01013KT 14/10 A2994 RMK A01 T01360099  RH  079%=      5-min Rain = 0
KREE 251312Z 02014G19KT 14/10 A2994 RMK A01 T01360098  RH  078%=      5-min Rain = 0
KREE 251313Z 01013KT 14/10 A2994 RMK A01 T01360098  RH  078%=      5-min Rain = 0
KREE 251314Z 01013G18KT 14/10 A2994 RMK A01 T01360100  RH  079%=      5-min Rain = 0
KREE 251315Z 02017KT 14/10 A2994 RMK A01 T01360096  RH  077%=      5-min Rain = 0
KREE 251316Z 01016KT 14/10 A2994 RMK A01 T01360096  RH  077%=      5-min Rain = 0
KREE 251317Z 02014KT 14/10 A2994 RMK A01 T01360096  RH  077%=      5-min Rain = 0
KREE 251318Z 01017KT 14/10 A2994 RMK A01 T01360095  RH  076%=      5-min Rain = 0
KREE 251319Z 02018KT 14/09 A2994 RMK A01 T01360093  RH  075%=      5-min Rain = 0
KREE 251320Z 01017KT 14/09 A2994 RMK A01 T01360093  RH  075%=      5-min Rain = 0
KREE 251321Z 01014KT 14/09 A2994 RMK A01 T01360094  RH  075%=      5-min Rain = 0
KREE 251322Z 01015KT 14/10 A2994 RMK A01 T01360095  RH  076%=      5-min Rain = 0
KREE 251323Z 01015KT 14/09 A2994 RMK A01 T01360094  RH  076%=      5-min Rain = 0
KREE 251324Z 01014KT 14/10 A2994 RMK A01 T01360095  RH  076%=      5-min Rain = 0
KREE 251325Z 01015KT 14/09 A2994 RMK A01 T01360094  RH  075%=      5-min Rain = 0
KREE 251326Z 01014KT 14/09 A2994 RMK A01 T01360094  RH  076%=      5-min Rain = 0
KREE 251327Z 01015KT 14/09 A2994 RMK A01 T01360093  RH  075%=      5-min Rain = 0
KREE 251328Z 01013KT 14/09 A2994 RMK A01 T01360094  RH  076%=      5-min Rain = 0
KREE 251329Z 01013G18KT 14/10 A2994 RMK A01 T01360095  RH  076%=      5-min Rain = 0
KREE 251330Z 01014KT 14/10 A2994 RMK A01 T01360095  RH  076%=      5-min Rain = 0
KREE 251331Z 02013KT 14/10 A2994 RMK A01 T01370095  RH  076%=      5-min Rain = 0
KREE 251332Z 01012KT 14/10 A2994 RMK A01 T01370095  RH  076%=      5-min Rain = 0
KREE 251333Z 01015KT 14/10 A2994 RMK A01 T01370096  RH  076%=      5-min Rain = 0
KREE 251334Z 01012KT 14/10 A2994 RMK A01 T01370096  RH  076%=      5-min Rain = 0
KREE 251335Z 01013KT 14/10 A2994 RMK A01 T01370096  RH  076%=      5-min Rain = 0
KREE 251336Z 01013KT 14/10 A2994 RMK A01 T01380095  RH  075%=      5-min Rain = 0
KREE 251337Z 01014KT 14/10 A2994 RMK A01 T01380096  RH  076%=      5-min Rain = 0
KREE 251338Z 01015KT 14/09 A2994 RMK A01 T01380093  RH  074%=      5-min Rain = 0
KREE 251339Z 01013KT 14/09 A2994 RMK A01 T01380093  RH  075%=      5-min Rain = 0
KREE 251340Z 02011G16KT 14/10 A2994 RMK A01 T01380096  RH  076%=      5-min Rain = 0
KREE 251341Z 02015KT 14/10 A2994 RMK A01 T01380095  RH  075%=      5-min Rain = 0
KREE 251342Z 02015KT 14/10 A2994 RMK A01 T01380095  RH  075%=      5-min Rain = 0
KREE 251343Z 01015KT 14/10 A2995 RMK A01 T01380095  RH  075%=      5-min Rain = 0
KREE 251344Z 01012KT 14/10 A2995 RMK A01 T01380096  RH  076%=      5-min Rain = 0
KREE 251345Z 01011KT 14/10 A2995 RMK A01 T01380097  RH  076%=      5-min Rain = 0
KREE 251346Z 01012KT 14/10 A2995 RMK A01 T01390097  RH  076%=      5-min Rain = 0
KREE 251347Z 01013KT 14/10 A2995 RMK A01 T01390096  RH  075%=      5-min Rain = 0
KREE 251348Z 01011KT 14/10 A2995 RMK A01 T01390097  RH  076%=      5-min Rain = 0
KREE 251349Z 01010KT 14/10 A2995 RMK A01 T01390098  RH  076%=      5-min Rain = 0
KREE 251350Z 02014KT 14/10 A2995 RMK A01 T01390097  RH  076%=      5-min Rain = 0
KREE 251351Z 02016KT 14/09 A2995 RMK A01 T01390093  RH  074%=      5-min Rain = 0
KREE 251352Z 02015KT 14/09 A2995 RMK A01 T01390094  RH  074%=      5-min Rain = 0
KREE 251353Z 02015G20KT 14/10 A2995 RMK A01 T01390095  RH  075%=      5-min Rain = 0
KREE 251354Z 02017KT 14/09 A2995 RMK A01 T01390094  RH  074%=      5-min Rain = 0
KREE 251355Z 02014KT 14/09 A2995 RMK A01 T01390093  RH  074%=      5-min Rain = 0
KREE 251356Z 02012KT 14/09 A2995 RMK A01 T01390094  RH  074%=      5-min Rain = 0
KREE 251357Z 02014G21KT 14/10 A2995 RMK A01 T01390095  RH  075%=      5-min Rain = 0
KREE 251358Z 02016KT 14/09 A2995 RMK A01 T01390094  RH  074%=      5-min Rain = 0
KREE 251359Z 01017KT 14/09 A2995 RMK A01 T01390094  RH  074%=      5-min Rain = 0
KREE 251400Z 02016KT 14/09 A2995 RMK A01 T01390094  RH  074%=      5-min Rain = 0
KREE 251401Z 02014KT 14/10 A2995 RMK A01 T01390095  RH  075%=      5-min Rain = 0
KREE 251402Z 02015KT 14/10 A2995 RMK A01 T01390096  RH  075%=      5-min Rain = 0
KREE 251403Z 01014KT 14/10 A2995 RMK A01 T01390096  RH  075%=      5-min Rain = 0
KREE 251404Z 01012KT 14/10 A2996 RMK A01 T01400098  RH  076%=      5-min Rain = 0
KREE 251405Z 01011KT 14/10 A2996 RMK A01 T01400099  RH  076%=      5-min Rain = 0
KREE 251406Z 01012KT 14/10 A2996 RMK A01 T01400099  RH  076%=      5-min Rain = 0
KREE 251407Z 02011KT 14/10 A2996 RMK A01 T01400099  RH  076%=      5-min Rain = 0
KREE 251408Z 01010KT 14/10 A2996 RMK A01 T01410100  RH  077%=      5-min Rain = 0
KREE 251409Z 02009G14KT 14/10 A2996 RMK A01 T01410100  RH  077%=      5-min Rain = 0
KREE 251410Z 01010KT 14/10 A2996 RMK A01 T01410101  RH  077%=      5-min Rain = 0
KREE 251411Z 02015G20KT 14/10 A2995 RMK A01 T01410101  RH  077%=      5-min Rain = 0
KREE 251412Z 02017KT 14/10 A2996 RMK A01 T01420099  RH  075%=      5-min Rain = 0
KREE 251413Z 02017G25KT 14/10 A2996 RMK A01 T01420099  RH  075%=      5-min Rain = 0
KREE 251414Z 02019KT 14/10 A2996 RMK A01 T01420097  RH  075%=      5-min Rain = 0
KREE 251415Z 02016G21KT 14/10 A2996 RMK A01 T01420098  RH  075%=      5-min Rain = 0
KREE 251416Z 01017G22KT 14/10 A2996 RMK A01 T01420098  RH  075%=      5-min Rain = 0
KREE 251417Z 01019KT 14/10 A2996 RMK A01 T01420097  RH  074%=      5-min Rain = 0
KREE 251418Z 02017G23KT 14/10 A2996 RMK A01 T01420098  RH  075%=      5-min Rain = 0
KREE 251419Z 01018KT 14/10 A2996 RMK A01 T01420098  RH  075%=      5-min Rain = 0
KREE 251420Z 01019KT 14/10 A2996 RMK A01 T01420098  RH  074%=      5-min Rain = 0
KREE 251421Z 02019G25KT 14/10 A2996 RMK A01 T01430098  RH  074%=      5-min Rain = 0
KREE 251422Z 01019KT 14/10 A2996 RMK A01 T01430097  RH  074%=      5-min Rain = 0
KREE 251423Z 02020G25KT 14/10 A2996 RMK A01 T01430097  RH  074%=      5-min Rain = 0
KREE 251424Z 02017G22KT 14/10 A2996 RMK A01 T01440098  RH  074%=      5-min Rain = 0
KREE 251425Z 02017G23KT 14/10 A2996 RMK A01 T01440098  RH  074%=      5-min Rain = 0
KREE 251426Z 02018G24KT 14/10 A2996 RMK A01 T01440097  RH  073%=      5-min Rain = 0
KREE 251427Z 02016G22KT 14/10 A2996 RMK A01 T01440098  RH  074%=      5-min Rain = 0
KREE 251428Z 02015KT 14/10 A2996 RMK A01 T01440099  RH  074%=      5-min Rain = 0
KREE 251429Z 02016G22KT 15/10 A2996 RMK A01 T01450100  RH  074%=      5-min Rain = 0
KREE 251430Z 01016G22KT 15/10 A2996 RMK A01 T01450099  RH  074%=      5-min Rain = 0
KREE 251431Z 01017G22KT 15/10 A2996 RMK A01 T01450100  RH  074%=      5-min Rain = 0
KREE 251432Z 01018G23KT 15/10 A2996 RMK A01 T01450099  RH  074%=      5-min Rain = 0
KREE 251433Z 01014KT 15/10 A2996 RMK A01 T01450100  RH  074%=      5-min Rain = 0
KREE 251434Z 02018KT 15/10 A2996 RMK A01 T01460100  RH  074%=      5-min Rain = 0
KREE 251435Z 02016G22KT 15/10 A2996 RMK A01 T01460098  RH  073%=      5-min Rain = 0
KREE 251436Z 02015G20KT 15/10 A2996 RMK A01 T01460100  RH  074%=      5-min Rain = 0
KREE 251437Z 02017G23KT 15/10 A2996 RMK A01 T01460100  RH  074%=      5-min Rain = 0
KREE 251438Z 01017KT 15/10 A2996 RMK A01 T01460098  RH  073%=      5-min Rain = 0
KREE 251439Z 01019G25KT 15/10 A2996 RMK A01 T01460098  RH  073%=      5-min Rain = 0
KREE 251440Z 01019G24KT 15/10 A2996 RMK A01 T01460098  RH  073%=      5-min Rain = 0
KREE 251441Z 01021KT 15/10 A2996 RMK A01 T01460098  RH  073%=      5-min Rain = 0
KREE 251442Z 02019G24KT 15/10 A2996 RMK A01 T01460097  RH  073%=      5-min Rain = 0
KREE 251443Z 02018G24KT 15/10 A2996 RMK A01 T01460099  RH  073%=      5-min Rain = 0
KREE 251444Z 02017G23KT 15/10 A2996 RMK A01 T01460100  RH  074%=      5-min Rain = 0
KREE 251445Z 02020KT 15/10 A2996 RMK A01 T01470098  RH  073%=      5-min Rain = 0
KREE 251446Z 02017G24KT 15/10 A2996 RMK A01 T01470100  RH  073%=      5-min Rain = 0
KREE 251447Z 02019G24KT 15/10 A2996 RMK A01 T01470099  RH  072%=      5-min Rain = 0
KREE 251448Z 02018G23KT 15/10 A2996 RMK A01 T01480099  RH  073%=      5-min Rain = 0
KREE 251449Z 02015KT 15/10 A2996 RMK A01 T01480100  RH  073%=      5-min Rain = 0
KREE 251450Z 02018KT 15/10 A2996 RMK A01 T01480101  RH  073%=      5-min Rain = 0
KREE 251451Z 02017G22KT 15/10 A2996 RMK A01 T01490099  RH  072%=      5-min Rain = 0
KREE 251452Z 02017KT 15/10 A2996 RMK A01 T01490100  RH  073%=      5-min Rain = 0
KREE 251453Z 02017G22KT 15/10 A2996 RMK A01 T01490100  RH  072%=      5-min Rain = 0
KREE 251454Z 02017G22KT 15/10 A2996 RMK A01 T01490101  RH  073%=      5-min Rain = 0
KREE 251455Z 02017G22KT 15/10 A2996 RMK A01 T01490100  RH  072%=      5-min Rain = 0
KREE 251456Z 02018KT 15/10 A2996 RMK A01 T01490099  RH  072%=      5-min Rain = 0
KREE 251457Z 02015KT 15/10 A2996 RMK A01 T01490100  RH  072%=      5-min Rain = 0
KREE 251458Z 02016KT 15/10 A2996 RMK A01 T01490101  RH  073%=      5-min Rain = 0
KREE 251459Z 02017G23KT 15/10 A2996 RMK A01 T01500102  RH  073%=      5-min Rain = 0
KREE 251500Z 02017G22KT 15/10 A2996 RMK A01 T01500102  RH  073%=      5-min Rain = 0
KREE 251501Z 02017G23KT 15/10 A2996 RMK A01 T01500101  RH  073%=      5-min Rain = 0
KREE 251502Z 02017G22KT 15/10 A2996 RMK A01 T01500101  RH  072%=      5-min Rain = 0
KREE 251503Z 02016G22KT 15/10 A2996 RMK A01 T01500101  RH  072%=      5-min Rain = 0
KREE 251504Z 02017G22KT 15/10 A2996 RMK A01 T01500101  RH  072%=      5-min Rain = 0
KREE 251505Z 02019KT 15/10 A2996 RMK A01 T01510101  RH  072%=      5-min Rain = 0
KREE 251506Z 02016KT 15/10 A2996 RMK A01 T01510102  RH  072%=      5-min Rain = 0
KREE 251507Z 02017KT 15/10 A2996 RMK A01 T01510101  RH  072%=      5-min Rain = 0
KREE 251508Z 02017KT 15/10 A2996 RMK A01 T01510101  RH  072%=      5-min Rain = 0
KREE 251509Z 02013G20KT 15/10 A2996 RMK A01 T01510102  RH  073%=      5-min Rain = 0
KREE 251510Z 02017KT 15/10 A2996 RMK A01 T01510102  RH  072%=      5-min Rain = 0
KREE 251511Z 02016KT 15/10 A2997 RMK A01 T01510101  RH  072%=      5-min Rain = 0
KREE 251512Z 02016G21KT 15/10 A2997 RMK A01 T01510102  RH  072%=      5-min Rain = 0
KREE 251513Z 02015G20KT 15/10 A2997 RMK A01 T01510103  RH  073%=      5-min Rain = 0
KREE 251514Z 02017KT 15/10 A2997 RMK A01 T01520102  RH  072%=      5-min Rain = 0
KREE 251515Z 02015G20KT 15/10 A2997 RMK A01 T01520103  RH  073%=      5-min Rain = 0
KREE 251516Z 01018KT 15/10 A2997 RMK A01 T01520102  RH  072%=      5-min Rain = 0
KREE 251517Z 02016KT 15/10 A2996 RMK A01 T01520102  RH  072%=      5-min Rain = 0
KREE 251518Z 01016G21KT 15/10 A2996 RMK A01 T01520103  RH  073%=      5-min Rain = 0
KREE 251519Z 01018KT 15/10 A2997 RMK A01 T01520102  RH  072%=      5-min Rain = 0
KREE 251520Z 01015G20KT 15/10 A2996 RMK A01 T01520103  RH  072%=      5-min Rain = 0
KREE 251521Z 01016G21KT 15/10 A2997 RMK A01 T01520103  RH  072%=      5-min Rain = 0
KREE 251522Z 01016KT 15/10 A2997 RMK A01 T01520103  RH  072%=      5-min Rain = 0
KREE 251523Z 01014KT 15/11 A2997 RMK A01 T01530105  RH  073%=      5-min Rain = 0
KREE 251524Z 01014KT 15/11 A2997 RMK A01 T01530105  RH  073%=      5-min Rain = 0
KREE 251525Z 01018KT 15/10 A2997 RMK A01 T01530104  RH  072%=      5-min Rain = 0
KREE 251526Z 02016G21KT 15/10 A2997 RMK A01 T01530103  RH  072%=      5-min Rain = 0
KREE 251527Z 02013G18KT 15/11 A2997 RMK A01 T01530105  RH  073%=      5-min Rain = 0
KREE 251528Z 02016KT 15/10 A2997 RMK A01 T01530104  RH  072%=      5-min Rain = 0
KREE 251529Z 02016KT 15/10 A2997 RMK A01 T01540104  RH  072%=      5-min Rain = 0
KREE 251530Z 02015KT 15/10 A2997 RMK A01 T01540103  RH  072%=      5-min Rain = 0
KREE 251531Z 02014KT 15/11 A2997 RMK A01 T01540106  RH  073%=      5-min Rain = 0
KREE 251532Z 02015G20KT 15/11 A2997 RMK A01 T01540105  RH  072%=      5-min Rain = 0
KREE 251533Z 02016G22KT 16/10 A2997 RMK A01 T01550104  RH  072%=      5-min Rain = 0
KREE 251534Z 02017G22KT 16/10 A2997 RMK A01 T01550103  RH  071%=      5-min Rain = 0
KREE 251535Z 02015KT 16/10 A2997 RMK A01 T01550104  RH  072%=      5-min Rain = 0
KREE 251536Z 01015KT 16/10 A2997 RMK A01 T01550104  RH  072%=      5-min Rain = 0
KREE 251537Z 02015KT 16/11 A2997 RMK A01 T01550105  RH  072%=      5-min Rain = 0
KREE 251538Z 02016G22KT 16/10 A2997 RMK A01 T01550104  RH  072%=      5-min Rain = 0
KREE 251539Z 02018G23KT 16/10 A2997 RMK A01 T01550104  RH  071%=      5-min Rain = 0
KREE 251540Z 02018KT 16/10 A2997 RMK A01 T01560103  RH  071%=      5-min Rain = 0
KREE 251541Z 02016KT 16/10 A2997 RMK A01 T01560104  RH  071%=      5-min Rain = 0
KREE 251542Z 02017KT 16/10 A2997 RMK A01 T01560104  RH  071%=      5-min Rain = 0
KREE 251543Z 02015KT 16/10 A2997 RMK A01 T01560103  RH  071%=      5-min Rain = 0
KREE 251544Z 02015G21KT 16/11 A2997 RMK A01 T01570106  RH  072%=      5-min Rain = 0
KREE 251545Z 02017G22KT 16/11 A2997 RMK A01 T01570105  RH  071%=      5-min Rain = 0
KREE 251546Z 02018KT 16/10 A2997 RMK A01 T01580104  RH  070%=      5-min Rain = 0
KREE 251547Z 03017KT 16/10 A2997 RMK A01 T01580104  RH  070%=      5-min Rain = 0
KREE 251548Z 02016KT 16/11 A2997 RMK A01 T01580105  RH  071%=      5-min Rain = 0
KREE 251549Z 02015KT 16/11 A2997 RMK A01 T01580105  RH  071%=      5-min Rain = 0
KREE 251550Z 02016KT 16/11 A2997 RMK A01 T01580106  RH  071%=      5-min Rain = 0
KREE 251551Z 03016KT 16/11 A2997 RMK A01 T01580105  RH  071%=      5-min Rain = 0
KREE 251552Z 03014KT 16/11 A2997 RMK A01 T01580106  RH  071%=      5-min Rain = 0
KREE 251553Z 02012KT 16/11 A2997 RMK A01 T01590107  RH  071%=      5-min Rain = 0
KREE 251554Z 02016KT 16/11 A2997 RMK A01 T01590107  RH  071%=      5-min Rain = 0
KREE 251555Z 02017G22KT 16/11 A2997 RMK A01 T01600107  RH  071%=      5-min Rain = 0
KREE 251556Z 02017KT 16/11 A2997 RMK A01 T01600106  RH  070%=      5-min Rain = 0
KREE 251557Z 02016KT 16/11 A2997 RMK A01 T01600108  RH  071%=      5-min Rain = 0
KREE 251558Z 02016G21KT 16/11 A2998 RMK A01 T01600108  RH  071%=      5-min Rain = 0
KREE 251559Z 02016G21KT 16/11 A2998 RMK A01 T01600107  RH  071%=      5-min Rain = 0
KREE 251600Z 03018KT 16/11 A2998 RMK A01 T01600106  RH  070%=      5-min Rain = 0
KREE 251601Z 04018KT 16/10 A2998 RMK A01 T01600104  RH  069%=      5-min Rain = 0
KREE 251602Z 03017G22KT 16/10 A2998 RMK A01 T01600104  RH  069%=      5-min Rain = 0
KREE 251603Z 03016KT 16/11 A2998 RMK A01 T01600105  RH  070%=      5-min Rain = 0
KREE 251604Z 03017KT 16/10 A2998 RMK A01 T01600104  RH  070%=      5-min Rain = 0
KREE 251605Z 02018KT 16/11 A2997 RMK A01 T01600105  RH  070%=      5-min Rain = 0
KREE 251606Z 02016G21KT 16/11 A2997 RMK A01 T01610105  RH  070%=      5-min Rain = 0
KREE 251607Z 02016G21KT 16/11 A2997 RMK A01 T01620107  RH  070%=      5-min Rain = 0
KREE 251608Z 02016G21KT 16/11 A2997 RMK A01 T01630107  RH  069%=      5-min Rain = 0
KREE 251609Z 02015G20KT 16/11 A2997 RMK A01 T01640108  RH  069%=      5-min Rain = 0
KREE 251610Z 02015KT 17/11 A2997 RMK A01 T01650108  RH  069%=      5-min Rain = 0
KREE 251611Z 03016KT 17/11 A2998 RMK A01 T01650107  RH  069%=      5-min Rain = 0
KREE 251612Z 02014KT 17/11 A2998 RMK A01 T01650108  RH  069%=      5-min Rain = 0
KREE 251613Z 03014G19KT 17/11 A2998 RMK A01 T01650109  RH  069%=      5-min Rain = 0
KREE 251614Z 03017KT 17/11 A2998 RMK A01 T01650108  RH  069%=      5-min Rain = 0
KREE 251615Z 03017G22KT 17/11 A2998 RMK A01 T01650106  RH  068%=      5-min Rain = 0
KREE 251616Z 04014G19KT 17/11 A2998 RMK A01 T01650107  RH  068%=      5-min Rain = 0
KREE 251617Z 04017KT 17/11 A2998 RMK A01 T01650107  RH  069%=      5-min Rain = 0
KREE 251618Z 03016G21KT 16/11 A2998 RMK A01 T01640105  RH  068%=      5-min Rain = 0
KREE 251619Z 04016KT 16/11 A2998 RMK A01 T01640106  RH  068%=      5-min Rain = 0
KREE 251620Z 04016G21KT 16/11 A2998 RMK A01 T01640106  RH  069%=      5-min Rain = 0
KREE 251621Z 03017KT 16/11 A2998 RMK A01 T01640106  RH  069%=      5-min Rain = 0
KREE 251622Z 03017KT 16/11 A2998 RMK A01 T01640107  RH  069%=      5-min Rain = 0
KREE 251623Z 03016G21KT 17/11 A2998 RMK A01 T01650107  RH  069%=      5-min Rain = 0
KREE 251624Z 04017KT 17/11 A2998 RMK A01 T01650105  RH  067%=      5-min Rain = 0
KREE 251625Z 04015G20KT 17/11 A2998 RMK A01 T01650107  RH  068%=      5-min Rain = 0
KREE 251626Z 04016KT 17/11 A2998 RMK A01 T01650106  RH  068%=      5-min Rain = 0
KREE 251627Z 04014KT 17/11 A2998 RMK A01 T01660108  RH  068%=      5-min Rain = 0
KREE 251628Z 04013G18KT 17/11 A2998 RMK A01 T01670110  RH  069%=      5-min Rain = 0
KREE 251629Z 03014KT 17/11 A2998 RMK A01 T01680109  RH  068%=      5-min Rain = 0
KREE 251630Z 03012KT 17/11 A2998 RMK A01 T01690112  RH  069%=      5-min Rain = 0
KREE 251631Z 03013KT 17/11 A2998 RMK A01 T01700112  RH  068%=      5-min Rain = 0
KREE 251632Z 03016KT 17/11 A2998 RMK A01 T01710109  RH  067%=      5-min Rain = 0
KREE 251633Z 04015KT 17/11 A2998 RMK A01 T01700108  RH  067%=      5-min Rain = 0
KREE 251634Z 03012G19KT 17/11 A2998 RMK A01 T01700111  RH  068%=      5-min Rain = 0
KREE 251635Z 03016KT 17/11 A2998 RMK A01 T01700108  RH  067%=      5-min Rain = 0
KREE 251636Z 03017KT 17/11 A2998 RMK A01 T01700107  RH  066%=      5-min Rain = 0
KREE 251637Z 05016KT 17/11 A2998 RMK A01 T01700108  RH  067%=      5-min Rain = 0
KREE 251638Z 05015KT 17/11 A2998 RMK A01 T01690108  RH  067%=      5-min Rain = 0
KREE 251639Z 03017G22KT 17/11 A2998 RMK A01 T01690109  RH  068%=      5-min Rain = 0
KREE 251640Z 03014G19KT 17/11 A2998 RMK A01 T01690107  RH  067%=      5-min Rain = 0
KREE 251641Z 04015G20KT 17/11 A2998 RMK A01 T01700109  RH  067%=      5-min Rain = 0
KREE 251642Z 04014G19KT 17/11 A2998 RMK A01 T01700107  RH  066%=      5-min Rain = 0
KREE 251643Z 05016KT 17/11 A2998 RMK A01 T01700109  RH  067%=      5-min Rain = 0
KREE 251644Z 05015KT 17/11 A2998 RMK A01 T01700109  RH  067%=      5-min Rain = 0
KREE 251645Z 05016KT 17/11 A2998 RMK A01 T01700108  RH  067%=      5-min Rain = 0
KREE 251646Z 05016KT 17/11 A2998 RMK A01 T01700110  RH  068%=      5-min Rain = 0
KREE 251647Z 05016KT 17/11 A2998 RMK A01 T01700108  RH  067%=      5-min Rain = 0
KREE 251648Z 04014KT 17/11 A2998 RMK A01 T01700109  RH  067%=      5-min Rain = 0
KREE 251649Z 04016KT 17/11 A2998 RMK A01 T01700108  RH  067%=      5-min Rain = 0
KREE 251650Z 04014G19KT 17/11 A2998 RMK A01 T01710109  RH  067%=      5-min Rain = 0
KREE 251651Z 04016KT 17/11 A2998 RMK A01 T01710109  RH  067%=      5-min Rain = 0
KREE 251652Z 03015KT 17/11 A2998 RMK A01 T01720110  RH  067%=      5-min Rain = 0
KREE 251653Z 03016KT 17/11 A2998 RMK A01 T01730108  RH  065%=      5-min Rain = 0
KREE 251654Z 03016G21KT 17/11 A2998 RMK A01 T01740108  RH  065%=      5-min Rain = 0
KREE 251655Z 03016KT 18/11 A2998 RMK A01 T01760110  RH  065%=      5-min Rain = 0
KREE 251656Z 03017KT 18/11 A2998 RMK A01 T01760108  RH  064%=      5-min Rain = 0
KREE 251657Z 03018KT 18/11 A2998 RMK A01 T01760107  RH  064%=      5-min Rain = 0
KREE 251658Z 04015G20KT 18/11 A2998 RMK A01 T01750108  RH  065%=      5-min Rain = 0
KREE 251659Z 04017KT 18/11 A2998 RMK A01 T01750107  RH  064%=      5-min Rain = 0
KREE 251700Z 04017KT 18/11 A2999 RMK A01 T01750108  RH  064%=      5-min Rain = 0
KREE 251701Z 04018KT 18/11 A2999 RMK A01 T01750107  RH  064%=      5-min Rain = 0
KREE 251702Z 04018KT 18/11 A2998 RMK A01 T01750105  RH  064%=      5-min Rain = 0
KREE 251703Z 04017G22KT 18/11 A2998 RMK A01 T01750107  RH  064%=      5-min Rain = 0
KREE 251704Z 05017KT 18/11 A2998 RMK A01 T01750106  RH  064%=      5-min Rain = 0
KREE 251705Z 04016G21KT 18/11 A2998 RMK A01 T01750107  RH  065%=      5-min Rain = 0
KREE 251706Z 04016KT 18/11 A2998 RMK A01 T01750108  RH  064%=      5-min Rain = 0
KREE 251707Z 03015KT 18/11 A2998 RMK A01 T01760108  RH  064%=      5-min Rain = 0
KREE 251708Z 04016KT 18/11 A2998 RMK A01 T01770108  RH  064%=      5-min Rain = 0
KREE 251709Z 04015G22KT 18/11 A2998 RMK A01 T01770107  RH  064%=      5-min Rain = 0
KREE 251710Z 04016G21KT 18/11 A2998 RMK A01 T01760109  RH  064%=      5-min Rain = 0
KREE 251711Z 04017KT 18/11 A2998 RMK A01 T01770108  RH  064%=      5-min Rain = 0
KREE 251712Z 04016KT 18/11 A2998 RMK A01 T01770107  RH  063%=      5-min Rain = 0
KREE 251713Z 04016KT 18/11 A2998 RMK A01 T01760107  RH  064%=      5-min Rain = 0
KREE 251714Z 04015G21KT 18/11 A2998 RMK A01 T01770108  RH  064%=      5-min Rain = 0
KREE 251715Z 05015G20KT 18/11 A2998 RMK A01 T01770109  RH  064%=      5-min Rain = 0
KREE 251716Z 05014KT 18/11 A2998 RMK A01 T01780111  RH  065%=      5-min Rain = 0
KREE 251717Z 04017KT 18/11 A2998 RMK A01 T01790110  RH  064%=      5-min Rain = 0
KREE 251718Z 02017G22KT 18/11 A2998 RMK A01 T01790109  RH  063%=      5-min Rain = 0
KREE 251719Z 03018KT 18/11 A2998 RMK A01 T01810110  RH  063%=      5-min Rain = 0
KREE 251720Z 03018KT 18/11 A2998 RMK A01 T01820109  RH  062%=      5-min Rain = 0
KREE 251721Z 03018KT 18/11 A2998 RMK A01 T01820108  RH  062%=      5-min Rain = 0
KREE 251722Z 02015G22KT 18/11 A2998 RMK A01 T01820109  RH  063%=      5-min Rain = 0
KREE 251723Z 03020KT 18/11 A2998 RMK A01 T01840110  RH  062%=      5-min Rain = 0
KREE 251724Z 03017G22KT 19/11 A2998 RMK A01 T01850108  RH  061%=      5-min Rain = 0
KREE 251725Z 03015KT 18/11 A2998 RMK A01 T01840111  RH  062%=      5-min Rain = 0
KREE 251726Z 03017KT 19/11 A2998 RMK A01 T01850111  RH  062%=      5-min Rain = 0
KREE 251727Z 03020KT 19/11 A2998 RMK A01 T01860108  RH  060%=      5-min Rain = 0
KREE 251728Z 03016G22KT 19/11 A2998 RMK A01 T01860108  RH  060%=      5-min Rain = 0
KREE 251729Z 04017KT 19/11 A2998 RMK A01 T01860107  RH  060%=      5-min Rain = 0
KREE 251730Z 04018KT 19/11 A2998 RMK A01 T01860108  RH  061%=      5-min Rain = 0
KREE 251731Z 04018G23KT 19/11 A2998 RMK A01 T01850108  RH  061%=      5-min Rain = 0
KREE 251732Z 04018KT 19/11 A2998 RMK A01 T01850106  RH  060%=      5-min Rain = 0
KREE 251733Z 04020KT 18/11 A2998 RMK A01 T01840107  RH  061%=      5-min Rain = 0
KREE 251734Z 03020KT 18/11 A2998 RMK A01 T01840107  RH  061%=      5-min Rain = 0
KREE 251735Z 04019KT 19/11 A2998 RMK A01 T01850107  RH  060%=      5-min Rain = 0
KREE 251736Z 04020KT 19/11 A2998 RMK A01 T01850106  RH  060%=      5-min Rain = 0
KREE 251737Z 03016G21KT 18/11 A2998 RMK A01 T01840108  RH  061%=      5-min Rain = 0
KREE 251738Z 04018KT 19/11 A2998 RMK A01 T01850109  RH  061%=      5-min Rain = 0
KREE 251739Z 04018KT 19/11 A2998 RMK A01 T01860108  RH  060%=      5-min Rain = 0
KREE 251740Z 04018KT 19/11 A2998 RMK A01 T01870109  RH  061%=      5-min Rain = 0
KREE 251741Z 04020G25KT 19/11 A2998 RMK A01 T01870107  RH  060%=      5-min Rain = 0
KREE 251742Z 03017KT 19/11 A2998 RMK A01 T01870108  RH  060%=      5-min Rain = 0
KREE 251743Z 03018G23KT 19/11 A2998 RMK A01 T01880108  RH  060%=      5-min Rain = 0
KREE 251744Z 02018KT 19/11 A2998 RMK A01 T01890108  RH  059%=      5-min Rain = 0
KREE 251745Z 02016G21KT 19/11 A2998 RMK A01 T01910110  RH  059%=      5-min Rain = 0
KREE 251746Z 03016KT 19/11 A2998 RMK A01 T01930112  RH  060%=      5-min Rain = 0
KREE 251747Z 03017KT 19/11 A2998 RMK A01 T01940108  RH  058%=      5-min Rain = 0
KREE 251748Z 02015KT 19/11 A2998 RMK A01 T01930110  RH  058%=      5-min Rain = 0
KREE 251749Z 03016KT 19/11 A2998 RMK A01 T01930110  RH  058%=      5-min Rain = 0
KREE 251750Z 02014KT 19/11 A2998 RMK A01 T01940111  RH  059%=      5-min Rain = 0
KREE 251751Z 03015G21KT 20/11 A2998 RMK A01 T01950113  RH  059%=      5-min Rain = 0
KREE 251752Z 02018KT 20/11 A2998 RMK A01 T01970111  RH  057%=      5-min Rain = 0
KREE 251753Z 02015KT 20/11 A2998 RMK A01 T01980109  RH  056%=      5-min Rain = 0
KREE 251754Z 03017KT 20/11 A2998 RMK A01 T01990108  RH  056%=      5-min Rain = 0
KREE 251755Z 03017G22KT 20/11 A2998 RMK A01 T01980108  RH  056%=      5-min Rain = 0
KREE 251756Z 03015KT 20/11 A2998 RMK A01 T01980110  RH  057%=      5-min Rain = 0
KREE 251757Z 02016G21KT 20/11 A2998 RMK A01 T02000113  RH  057%=      5-min Rain = 0
KREE 251758Z 03017KT 20/11 A2998 RMK A01 T02020108  RH  055%=      5-min Rain = 0
KREE 251759Z 03018KT 20/11 A2998 RMK A01 T02010109  RH  055%=      5-min Rain = 0
KREE 251800Z 03018KT 20/11 A2998 RMK A01 T01990108  RH  056%=      5-min Rain = 0
KREE 251801Z 03017KT 20/11 A2997 RMK A01 T01980109  RH  056%=      5-min Rain = 0
KREE 251802Z 03020KT 20/11 A2998 RMK A01 T01980107  RH  056%=      5-min Rain = 0
KREE 251803Z 03018G23KT 20/11 A2998 RMK A01 T01960105  RH  056%=      5-min Rain = 0
KREE 251804Z 02013KT 19/11 A2997 RMK A01 T01940108  RH  057%=      5-min Rain = 0
KREE 251805Z 01015KT 20/11 A2997 RMK A01 T01960109  RH  057%=      5-min Rain = 0
KREE 251806Z 01019KT 20/11 A2998 RMK A01 T01970110  RH  057%=      5-min Rain = 0
KREE 251807Z 02018KT 20/11 A2998 RMK A01 T01970107  RH  056%=      5-min Rain = 0
KREE 251808Z 03017KT 20/11 A2998 RMK A01 T01960107  RH  056%=      5-min Rain = 0
KREE 251809Z 03018KT 20/11 A2998 RMK A01 T01950107  RH  057%=      5-min Rain = 0
KREE 251810Z 03017KT 20/11 A2998 RMK A01 T01950105  RH  056%=      5-min Rain = 0
KREE 251811Z 03012KT 20/11 A2998 RMK A01 T01950107  RH  057%=      5-min Rain = 0
KREE 251812Z 03014KT 20/11 A2998 RMK A01 T01970110  RH  057%=      5-min Rain = 0
KREE 251813Z 02014G20KT 20/11 A2998 RMK A01 T01980111  RH  057%=      5-min Rain = 0
KREE 251814Z 01017KT 20/11 A2998 RMK A01 T02000110  RH  056%=      5-min Rain = 0
KREE 251815Z 02016KT 20/11 A2998 RMK A01 T02000109  RH  056%=      5-min Rain = 0
KREE 251816Z 02013KT 20/11 A2998 RMK A01 T02010112  RH  056%=      5-min Rain = 0
KREE 251817Z 02014KT 20/11 A2998 RMK A01 T02030111  RH  055%=      5-min Rain = 0
KREE 251818Z 02014G20KT 20/11 A2998 RMK A01 T02040111  RH  055%=      5-min Rain = 0
KREE 251819Z 02014KT 20/11 A2998 RMK A01 T02040109  RH  054%=      5-min Rain = 0
KREE 251820Z 02014G21KT 20/11 A2998 RMK A01 T02030111  RH  055%=      5-min Rain = 0
KREE 251821Z 02016G21KT 20/11 A2998 RMK A01 T02020108  RH  055%=      5-min Rain = 0
KREE 251822Z 01018G23KT 20/11 A2998 RMK A01 T02020109  RH  055%=      5-min Rain = 0
KREE 251823Z 01017G22KT 20/11 A2998 RMK A01 T02010107  RH  054%=      5-min Rain = 0
KREE 251824Z 00013G21KT 20/11 A2998 RMK A01 T02000108  RH  055%=      5-min Rain = 0
KREE 251825Z 36017G22KT 20/11 A2997 RMK A01 T02000109  RH  056%=      5-min Rain = 0
KREE 251826Z 00017G24KT 20/11 A2998 RMK A01 T02000110  RH  056%=      5-min Rain = 0
KREE 251827Z 01018G26KT 20/11 A2998 RMK A01 T01990108  RH  056%=      5-min Rain = 0
KREE 251828Z 02018G26KT 20/11 A2998 RMK A01 T01970106  RH  056%=      5-min Rain = 0
KREE 251829Z 01016KT 20/11 A2998 RMK A01 T01970108  RH  057%=      5-min Rain = 0
KREE 251830Z 01016KT 20/11 A2998 RMK A01 T01960105  RH  056%=      5-min Rain = 0
KREE 251831Z 01016KT 20/11 A2998 RMK A01 T01950107  RH  057%=      5-min Rain = 0
KREE 251832Z 01016KT 20/11 A2998 RMK A01 T01950107  RH  057%=      5-min Rain = 0
KREE 251833Z 02016G23KT 20/11 A2998 RMK A01 T01950109  RH  057%=      5-min Rain = 0
KREE 251834Z 01017G22KT 20/11 A2998 RMK A01 T01950105  RH  056%=      5-min Rain = 0
KREE 251835Z 01016G22KT 20/11 A2998 RMK A01 T01950106  RH  056%=      5-min Rain = 0
KREE 251836Z 02019KT 19/10 A2998 RMK A01 T01940104  RH  056%=      5-min Rain = 0
KREE 251837Z 01021KT 19/10 A2998 RMK A01 T01920103  RH  056%=      5-min Rain = 0
KREE 251838Z 02019KT 19/10 A2998 RMK A01 T01910103  RH  056%=      5-min Rain = 0
KREE 251839Z 01016KT 19/10 A2998 RMK A01 T01900104  RH  057%=      5-min Rain = 0
KREE 251840Z 01014KT 19/11 A2998 RMK A01 T01900105  RH  058%=      5-min Rain = 0
KREE 251841Z 00015KT 19/11 A2998 RMK A01 T01910105  RH  058%=      5-min Rain = 0
KREE 251842Z 00016G21KT 19/11 A2998 RMK A01 T01910107  RH  058%=      5-min Rain = 0
KREE 251843Z 01016KT 19/11 A2998 RMK A01 T01920107  RH  058%=      5-min Rain = 0
KREE 251844Z 01018G23KT 19/10 A2998 RMK A01 T01920104  RH  057%=      5-min Rain = 0
KREE 251845Z 01018G24KT 19/10 A2998 RMK A01 T01920104  RH  057%=      5-min Rain = 0
KREE 251846Z 01016G21KT 19/10 A2998 RMK A01 T01910104  RH  057%=      5-min Rain = 0
KREE 251847Z 01017KT 19/10 A2998 RMK A01 T01910102  RH  056%=      5-min Rain = 0
KREE 251848Z 00017KT 19/10 A2998 RMK A01 T01900104  RH  057%=      5-min Rain = 0
KREE 251849Z 00018G23KT 19/10 A2998 RMK A01 T01900103  RH  057%=      5-min Rain = 0
KREE 251850Z 01018KT 19/10 A2998 RMK A01 T01900103  RH  057%=      5-min Rain = 0
KREE 251851Z 01018KT 19/10 A2998 RMK A01 T01890102  RH  057%=      5-min Rain = 0
KREE 251852Z 01017G23KT 19/10 A2998 RMK A01 T01880102  RH  057%=      5-min Rain = 0
KREE 251853Z 01019KT 19/10 A2998 RMK A01 T01880103  RH  057%=      5-min Rain = 0
KREE 251854Z 01017KT 19/10 A2998 RMK A01 T01880103  RH  058%=      5-min Rain = 0
KREE 251855Z 01016KT 19/11 A2998 RMK A01 T01890105  RH  058%=      5-min Rain = 0
KREE 251856Z 01015G20KT 19/11 A2998 RMK A01 T01900105  RH  058%=      5-min Rain = 0
KREE 251857Z 01015KT 19/10 A2998 RMK A01 T01910104  RH  057%=      5-min Rain = 0
KREE 251858Z 01015G21KT 19/11 A2998 RMK A01 T01910105  RH  057%=      5-min Rain = 0
KREE 251859Z 01017G22KT 19/10 A2998 RMK A01 T01910102  RH  056%=      5-min Rain = 0
KREE 251900Z 00014KT 19/10 A2998 RMK A01 T01900101  RH  056%=      5-min Rain = 0
KREE 251901Z 00015KT 19/10 A2998 RMK A01 T01890104  RH  058%=      5-min Rain = 0
KREE 251902Z 01016KT 19/10 A2998 RMK A01 T01900102  RH  057%=      5-min Rain = 0
KREE 251903Z 01014G20KT 19/11 A2998 RMK A01 T01890105  RH  058%=      5-min Rain = 0
KREE 251904Z 01018KT 19/10 A2998 RMK A01 T01900104  RH  057%=      5-min Rain = 0
KREE 251905Z 01019KT 19/10 A2998 RMK A01 T01900103  RH  057%=      5-min Rain = 0
KREE 251906Z 01017KT 19/10 A2998 RMK A01 T01880101  RH  057%=      5-min Rain = 0
KREE 251907Z 01015KT 19/10 A2998 RMK A01 T01870103  RH  058%=      5-min Rain = 0
KREE 251908Z 01016G21KT 19/10 A2998 RMK A01 T01880102  RH  058%=      5-min Rain = 0
KREE 251909Z 01017KT 19/10 A2998 RMK A01 T01880102  RH  057%=      5-min Rain = 0
KREE 251910Z 02015KT 19/10 A2998 RMK A01 T01880103  RH  058%=      5-min Rain = 0
KREE 251911Z 03018KT 19/10 A2998 RMK A01 T01880101  RH  057%=      5-min Rain = 0
KREE 251912Z 02015KT 19/10 A2998 RMK A01 T01870101  RH  057%=      5-min Rain = 0
KREE 251913Z 02014G19KT 19/10 A2998 RMK A01 T01870101  RH  057%=      5-min Rain = 0
KREE 251914Z 02016KT 19/10 A2998 RMK A01 T01870102  RH  058%=      5-min Rain = 0
KREE 251915Z 02014KT 19/10 A2998 RMK A01 T01870100  RH  057%=      5-min Rain = 0
KREE 251916Z 02012G18KT 19/10 A2998 RMK A01 T01870104  RH  058%=      5-min Rain = 0
KREE 251917Z 01016KT 19/10 A2998 RMK A01 T01870101  RH  057%=      5-min Rain = 0
KREE 251918Z 01016KT 19/10 A2998 RMK A01 T01870101  RH  057%=      5-min Rain = 0
KREE 251919Z 02015KT 19/10 A2998 RMK A01 T01860101  RH  058%=      5-min Rain = 0
KREE 251920Z 01013KT 19/10 A2998 RMK A01 T01860102  RH  058%=      5-min Rain = 0
KREE 251921Z 01014KT 19/10 A2998 RMK A01 T01860102  RH  058%=      5-min Rain = 0
KREE 251922Z 01013G18KT 19/11 A2998 RMK A01 T01870105  RH  059%=      5-min Rain = 0
KREE 251923Z 01015KT 19/10 A2998 RMK A01 T01870102  RH  058%=      5-min Rain = 0
KREE 251924Z 01013G18KT 19/10 A2999 RMK A01 T01870102  RH  057%=      5-min Rain = 0
KREE 251925Z 02011KT 19/10 A2998 RMK A01 T01870102  RH  058%=      5-min Rain = 0
KREE 251926Z 02013KT 19/10 A2999 RMK A01 T01870104  RH  059%=      5-min Rain = 0
KREE 251927Z 02014KT 19/10 A2999 RMK A01 T01880103  RH  058%=      5-min Rain = 0
KREE 251928Z 02015KT 19/10 A2999 RMK A01 T01880100  RH  057%=      5-min Rain = 0
KREE 251929Z 02015KT 19/10 A2999 RMK A01 T01870102  RH  057%=      5-min Rain = 0
KREE 251930Z 02016G23KT 19/10 A2999 RMK A01 T01870102  RH  058%=      5-min Rain = 0
KREE 251931Z 02015G21KT 19/10 A2999 RMK A01 T01860100  RH  057%=      5-min Rain = 0
KREE 251932Z 02015KT 19/10 A2999 RMK A01 T01850099  RH  057%=      5-min Rain = 0
KREE 251933Z 01012G17KT 19/10 A2999 RMK A01 T01850100  RH  058%=      5-min Rain = 0
KREE 251934Z 01013KT 19/10 A2999 RMK A01 T01860102  RH  058%=      5-min Rain = 0
KREE 251935Z 01013G19KT 19/10 A2999 RMK A01 T01870100  RH  057%=      5-min Rain = 0
KREE 251936Z 01013KT 19/10 A2999 RMK A01 T01870101  RH  057%=      5-min Rain = 0
KREE 251937Z 02015KT 19/10 A2999 RMK A01 T01870101  RH  057%=      5-min Rain = 0
KREE 251938Z 02015KT 19/10 A2999 RMK A01 T01870099  RH  057%=      5-min Rain = 0
KREE 251939Z 02015KT 19/10 A2999 RMK A01 T01860099  RH  057%=      5-min Rain = 0
KREE 251940Z 02013KT 19/10 A2999 RMK A01 T01860099  RH  057%=      5-min Rain = 0
KREE 251941Z 02013KT 19/10 A2999 RMK A01 T01870098  RH  056%=      5-min Rain = 0
KREE 251942Z 02012KT 19/10 A2999 RMK A01 T01870101  RH  057%=      5-min Rain = 0
KREE 251943Z 02010KT 19/10 A2998 RMK A01 T01880101  RH  057%=      5-min Rain = 0
KREE 251944Z 02012KT 19/10 A2998 RMK A01 T01900101  RH  056%=      5-min Rain = 0
KREE 251945Z 03010KT 19/10 A2998 RMK A01 T01910103  RH  057%=      5-min Rain = 0
KREE 251946Z 02014KT 19/10 A2998 RMK A01 T01930102  RH  056%=      5-min Rain = 0
KREE 251947Z 01014KT 19/10 A2998 RMK A01 T01930102  RH  056%=      5-min Rain = 0
KREE 251948Z 02014KT 19/10 A2998 RMK A01 T01940102  RH  055%=      5-min Rain = 0
KREE 251949Z 01017KT 20/10 A2998 RMK A01 T01950103  RH  055%=      5-min Rain = 0
KREE 251950Z 01017KT 20/10 A2998 RMK A01 T01960103  RH  055%=      5-min Rain = 0
KREE 251951Z 01015KT 20/10 A2998 RMK A01 T01970102  RH  054%=      5-min Rain = 0
KREE 251952Z 02015G20KT 20/10 A2997 RMK A01 T01990103  RH  054%=      5-min Rain = 0
KREE 251953Z 02016G21KT 20/10 A2998 RMK A01 T02010103  RH  053%=      5-min Rain = 0
KREE 251954Z 02012KT 20/10 A2997 RMK A01 T02020103  RH  053%=      5-min Rain = 0
KREE 251955Z 02010KT 20/11 A2997 RMK A01 T02030105  RH  053%=      5-min Rain = 0
KREE 251956Z 02014KT 21/11 A2997 RMK A01 T02050107  RH  053%=      5-min Rain = 0
KREE 251957Z 03014KT 21/10 A2997 RMK A01 T02060101  RH  051%=      5-min Rain = 0
KREE 251958Z 02010KT 20/10 A2997 RMK A01 T02040103  RH  052%=      5-min Rain = 0
KREE 251959Z 02015KT 20/11 A2997 RMK A01 T02040106  RH  053%=      5-min Rain = 0
KREE 252000Z 02014G20KT 21/10 A2997 RMK A01 T02060104  RH  052%=      5-min Rain = 0
KREE 252001Z 03013KT 21/11 A2997 RMK A01 T02060105  RH  052%=      5-min Rain = 0
KREE 252002Z 03014KT 21/10 A2997 RMK A01 T02070103  RH  051%=      5-min Rain = 0
KREE 252003Z 03015KT 21/10 A2997 RMK A01 T02070104  RH  052%=      5-min Rain = 0
KREE 252004Z 03010KT 21/10 A2997 RMK A01 T02060104  RH  052%=      5-min Rain = 0
KREE 252005Z 04012KT 21/10 A2997 RMK A01 T02070103  RH  051%=      5-min Rain = 0
KREE 252006Z 04011KT 20/10 A2997 RMK A01 T02040099  RH  051%=      5-min Rain = 0
KREE 252007Z 03011KT 20/10 A2997 RMK A01 T02010104  RH  053%=      5-min Rain = 0
KREE 252008Z 04013G19KT 20/10 A2997 RMK A01 T02030103  RH  053%=      5-min Rain = 0
KREE 252009Z 02015KT 20/10 A2997 RMK A01 T02040104  RH  053%=      5-min Rain = 0
KREE 252010Z 02013KT 21/10 A2997 RMK A01 T02050103  RH  052%=      5-min Rain = 0
KREE 252011Z 02012G18KT 21/10 A2997 RMK A01 T02050104  RH  052%=      5-min Rain = 0
KREE 252012Z 01012KT 21/11 A2997 RMK A01 T02070105  RH  052%=      5-min Rain = 0
KREE 252013Z 01013KT 21/11 A2997 RMK A01 T02080105  RH  052%=      5-min Rain = 0
KREE 252014Z 36013KT 21/11 A2997 RMK A01 T02090106  RH  052%=      5-min Rain = 0
KREE 252015Z 00011KT 21/11 A2997 RMK A01 T02090106  RH  052%=      5-min Rain = 0
KREE 252016Z 01012KT 21/10 A2997 RMK A01 T02090102  RH  050%=      5-min Rain = 0
KREE 252017Z 02012KT 21/10 A2997 RMK A01 T02070102  RH  051%=      5-min Rain = 0
KREE 252018Z 03014G20KT 21/10 A2997 RMK A01 T02060101  RH  051%=      5-min Rain = 0
KREE 252019Z 02014KT 21/10 A2997 RMK A01 T02060100  RH  051%=      5-min Rain = 0
KREE 252020Z 02013KT 21/10 A2997 RMK A01 T02070101  RH  051%=      5-min Rain = 0
KREE 252021Z 04013KT 21/10 A2997 RMK A01 T02080101  RH  051%=      5-min Rain = 0
KREE 252022Z 04016KT 21/10 A2997 RMK A01 T02070098  RH  049%=      5-min Rain = 0
KREE 252023Z 05012KT 20/10 A2997 RMK A01 T02040097  RH  050%=      5-min Rain = 0
KREE 252024Z 02013G22KT 20/10 A2996 RMK A01 T02030099  RH  051%=      5-min Rain = 0
KREE 252025Z 02014KT 21/10 A2996 RMK A01 T02050103  RH  052%=      5-min Rain = 0
KREE 252026Z 02013KT 21/10 A2996 RMK A01 T02090104  RH  051%=      5-min Rain = 0
KREE 252027Z 03015G20KT 21/10 A2997 RMK A01 T02110103  RH  050%=      5-min Rain = 0
KREE 252028Z 03013KT 21/10 A2997 RMK A01 T02120098  RH  048%=      5-min Rain = 0
KREE 252029Z 02014KT 21/10 A2996 RMK A01 T02100101  RH  050%=      5-min Rain = 0
KREE 252030Z 02013KT 21/10 A2996 RMK A01 T02100102  RH  050%=      5-min Rain = 0
KREE 252031Z 02012G19KT 21/10 A2996 RMK A01 T02100103  RH  050%=      5-min Rain = 0
KREE 252032Z 02015G24KT 21/11 A2996 RMK A01 T02110105  RH  051%=      5-min Rain = 0
KREE 252033Z 05014KT 21/10 A2996 RMK A01 T02140103  RH  049%=      5-min Rain = 0
KREE 252034Z 04014G19KT 21/10 A2996 RMK A01 T02110101  RH  049%=      5-min Rain = 0
KREE 252035Z 03014G19KT 21/10 A2996 RMK A01 T02100102  RH  050%=      5-min Rain = 0
KREE 252036Z 04016G23KT 21/10 A2996 RMK A01 T02110102  RH  050%=      5-min Rain = 0
KREE 252037Z 04015KT 21/10 A2996 RMK A01 T02120100  RH  049%=      5-min Rain = 0
KREE 252038Z 04015G20KT 21/10 A2996 RMK A01 T02110101  RH  049%=      5-min Rain = 0
KREE 252039Z 03015KT 21/10 A2996 RMK A01 T02120100  RH  049%=      5-min Rain = 0
KREE 252040Z 04014KT 21/10 A2996 RMK A01 T02110100  RH  049%=      5-min Rain = 0
KREE 252041Z 04016KT 21/10 A2997 RMK A01 T02110100  RH  049%=      5-min Rain = 0
KREE 252042Z 04014KT 21/10 A2997 RMK A01 T02110099  RH  049%=      5-min Rain = 0
KREE 252043Z 04014G19KT 21/10 A2997 RMK A01 T02090098  RH  049%=      5-min Rain = 0
KREE 252044Z 04014G21KT 21/10 A2996 RMK A01 T02080101  RH  050%=      5-min Rain = 0
KREE 252045Z 03015KT 21/10 A2997 RMK A01 T02080100  RH  050%=      5-min Rain = 0
KREE 252046Z 02011G16KT 21/10 A2996 RMK A01 T02090103  RH  050%=      5-min Rain = 0
KREE 252047Z 04015KT 21/10 A2996 RMK A01 T02110101  RH  049%=      5-min Rain = 0
KREE 252048Z 04016KT 21/10 A2997 RMK A01 T02100101  RH  050%=      5-min Rain = 0
KREE 252049Z 04013KT 21/10 A2996 RMK A01 T02090101  RH  050%=      5-min Rain = 0
KREE 252050Z 03015KT 21/10 A2996 RMK A01 T02080101  RH  050%=      5-min Rain = 0
KREE 252051Z 03014G19KT 21/10 A2996 RMK A01 T02080101  RH  050%=      5-min Rain = 0
KREE 252052Z 03012G22KT 21/10 A2996 RMK A01 T02090099  RH  049%=      5-min Rain = 0
KREE 252053Z 03013G22KT 21/10 A2996 RMK A01 T02090100  RH  049%=      5-min Rain = 0
KREE 252054Z 03014KT 21/10 A2996 RMK A01 T02090099  RH  049%=      5-min Rain = 0
KREE 252055Z 00013KT 21/10 A2996 RMK A01 T02100104  RH  051%=      5-min Rain = 0
KREE 252056Z 02011KT 22/11 A2996 RMK A01 T02150106  RH  050%=      5-min Rain = 0
KREE 252057Z 02009KT 22/10 A2996 RMK A01 T02170103  RH  048%=      5-min Rain = 0
KREE 252058Z 04012KT 22/10 A2996 RMK A01 T02170102  RH  048%=      5-min Rain = 0
KREE 252059Z 04010G15KT 22/10 A2996 RMK A01 T02160103  RH  049%=      5-min Rain = 0
KREE 252100Z 02014KT 21/10 A2996 RMK A01 T02140103  RH  049%=      5-min Rain = 0
KREE 252101Z 02016KT 22/11 A2996 RMK A01 T02150106  RH  050%=      5-min Rain = 0
KREE 252102Z 02015KT 22/10 A2996 RMK A01 T02180103  RH  048%=      5-min Rain = 0
KREE 252103Z 01016KT 22/10 A2996 RMK A01 T02180103  RH  048%=      5-min Rain = 0
KREE 252104Z 02015G21KT 22/10 A2996 RMK A01 T02170104  RH  048%=      5-min Rain = 0
KREE 252105Z 01016KT 22/11 A2996 RMK A01 T02160105  RH  049%=      5-min Rain = 0
KREE 252106Z 01014KT 22/11 A2996 RMK A01 T02160105  RH  049%=      5-min Rain = 0
KREE 252107Z 00013KT 22/11 A2996 RMK A01 T02160105  RH  049%=      5-min Rain = 0
KREE 252108Z 01013KT 22/11 A2996 RMK A01 T02170105  RH  049%=      5-min Rain = 0
KREE 252109Z 01015KT 22/11 A2996 RMK A01 T02180106  RH  049%=      5-min Rain = 0
KREE 252110Z 02016KT 22/10 A2996 RMK A01 T02180103  RH  048%=      5-min Rain = 0
KREE 252111Z 01014KT 22/10 A2996 RMK A01 T02170102  RH  048%=      5-min Rain = 0
KREE 252112Z 01014G19KT 22/10 A2996 RMK A01 T02150102  RH  049%=      5-min Rain = 0
KREE 252113Z 01014KT 21/10 A2996 RMK A01 T02140102  RH  049%=      5-min Rain = 0
KREE 252114Z 01014KT 21/10 A2996 RMK A01 T02140104  RH  050%=      5-min Rain = 0
KREE 252115Z 01016KT 21/10 A2996 RMK A01 T02140104  RH  049%=      5-min Rain = 0
KREE 252116Z 01018KT 22/10 A2996 RMK A01 T02150100  RH  048%=      5-min Rain = 0
KREE 252117Z 01017KT 21/10 A2996 RMK A01 T02140100  RH  048%=      5-min Rain = 0
KREE 252118Z 00015KT 21/10 A2996 RMK A01 T02120100  RH  049%=      5-min Rain = 0
KREE 252119Z 01014KT 21/10 A2996 RMK A01 T02110101  RH  049%=      5-min Rain = 0
KREE 252120Z 01016KT 21/10 A2996 RMK A01 T02110098  RH  049%=      5-min Rain = 0
KREE 252121Z 01014KT 21/10 A2996 RMK A01 T02090099  RH  049%=      5-min Rain = 0
KREE 252122Z 01014KT 21/10 A2996 RMK A01 T02090100  RH  050%=      5-min Rain = 0
KREE 252123Z 00012KT 21/10 A2996 RMK A01 T02080099  RH  050%=      5-min Rain = 0
KREE 252124Z 36013KT 21/10 A2996 RMK A01 T02080100  RH  050%=      5-min Rain = 0
KREE 252125Z 02014G19KT 21/10 A2996 RMK A01 T02080102  RH  051%=      5-min Rain = 0
KREE 252126Z 02013KT 21/10 A2996 RMK A01 T02080099  RH  050%=      5-min Rain = 0
KREE 252127Z 01014KT 21/10 A2996 RMK A01 T02070101  RH  051%=      5-min Rain = 0
KREE 252128Z 01013KT 21/10 A2996 RMK A01 T02070102  RH  051%=      5-min Rain = 0
KREE 252129Z 01014KT 21/10 A2996 RMK A01 T02080100  RH  050%=      5-min Rain = 0
KREE 252130Z 02015KT 21/10 A2996 RMK A01 T02070099  RH  050%=      5-min Rain = 0
KREE 252131Z 01014G20KT 21/10 A2996 RMK A01 T02070101  RH  051%=      5-min Rain = 0
KREE 252132Z 01017G22KT 21/10 A2996 RMK A01 T02060100  RH  051%=      5-min Rain = 0
KREE 252133Z 01014KT 21/10 A2996 RMK A01 T02050098  RH  050%=      5-min Rain = 0
KREE 252134Z 01014KT 21/10 A2996 RMK A01 T02050098  RH  050%=      5-min Rain = 0
KREE 252135Z 00014KT 20/10 A2996 RMK A01 T02040098  RH  051%=      5-min Rain = 0
KREE 252136Z 00012KT 20/10 A2996 RMK A01 T02040099  RH  051%=      5-min Rain = 0
KREE 252137Z 00013KT 21/10 A2996 RMK A01 T02050100  RH  051%=      5-min Rain = 0
KREE 252138Z 36015KT 21/10 A2996 RMK A01 T02050098  RH  050%=      5-min Rain = 0
KREE 252139Z 01016KT 21/10 A2996 RMK A01 T02050099  RH  051%=      5-min Rain = 0
KREE 252140Z 01014KT 20/10 A2996 RMK A01 T02040100  RH  051%=      5-min Rain = 0
KREE 252141Z 02015KT 20/10 A2996 RMK A01 T02040100  RH  051%=      5-min Rain = 0
KREE 252142Z 01015KT 20/10 A2996 RMK A01 T02040101  RH  051%=      5-min Rain = 0
KREE 252143Z 01015KT 20/10 A2996 RMK A01 T02040098  RH  051%=      5-min Rain = 0
KREE 252144Z 01016KT 20/10 A2996 RMK A01 T02030097  RH  051%=      5-min Rain = 0
KREE 252145Z 01015KT 20/10 A2996 RMK A01 T02020097  RH  051%=      5-min Rain = 0
KREE 252146Z 01013KT 20/10 A2996 RMK A01 T02020098  RH  051%=      5-min Rain = 0
KREE 252147Z 01014KT 20/10 A2996 RMK A01 T02020099  RH  052%=      5-min Rain = 0
KREE 252148Z 01015KT 20/10 A2996 RMK A01 T02020098  RH  051%=      5-min Rain = 0
KREE 252149Z 01015KT 20/10 A2996 RMK A01 T02020097  RH  051%=      5-min Rain = 0
KREE 252150Z 00013G18KT 20/10 A2996 RMK A01 T02020098  RH  051%=      5-min Rain = 0
KREE 252151Z 01014KT 20/10 A2996 RMK A01 T02020098  RH  051%=      5-min Rain = 0
KREE 252152Z 01011G16KT 20/10 A2996 RMK A01 T02020101  RH  052%=      5-min Rain = 0
KREE 252153Z 02013KT 20/10 A2996 RMK A01 T02020102  RH  052%=      5-min Rain = 0
KREE 252154Z 02014KT 20/10 A2996 RMK A01 T02030100  RH  052%=      5-min Rain = 0
KREE 252155Z 01011KT 20/10 A2996 RMK A01 T02030101  RH  052%=      5-min Rain = 0
KREE 252156Z 01015KT 20/10 A2997 RMK A01 T02030100  RH  052%=      5-min Rain = 0
KREE 252157Z 01016KT 20/10 A2997 RMK A01 T02020098  RH  051%=      5-min Rain = 0
KREE 252158Z 00016KT 20/10 A2997 RMK A01 T02010096  RH  051%=      5-min Rain = 0
KREE 252159Z 36016KT 20/10 A2997 RMK A01 T02010095  RH  051%=      5-min Rain = 0
KREE 252200Z 00015KT 20/10 A2997 RMK A01 T02000096  RH  051%=      5-min Rain = 0
KREE 252201Z 00014G19KT 20/10 A2997 RMK A01 T02000096  RH  051%=      5-min Rain = 0
KREE 252202Z 01016KT 20/10 A2997 RMK A01 T02000097  RH  051%=      5-min Rain = 0
KREE 252203Z 02017KT 20/10 A2997 RMK A01 T02000097  RH  051%=      5-min Rain = 0
KREE 252204Z 01016KT 20/10 A2997 RMK A01 T02000098  RH  052%=      5-min Rain = 0
KREE 252205Z 36020KT 20/10 A2997 RMK A01 T02000098  RH  052%=      5-min Rain = 0
KREE 252206Z 35020G25KT 20/10 A2997 RMK A01 T01990099  RH  052%=      5-min Rain = 0
KREE 252207Z 35019G25KT 20/10 A2997 RMK A01 T01970099  RH  053%=      5-min Rain = 0
KREE 252208Z 35019KT 20/10 A2997 RMK A01 T01950100  RH  054%=      5-min Rain = 0
KREE 252209Z 35023G29KT 19/10 A2997 RMK A01 T01940099  RH  054%=      5-min Rain = 0
KREE 252210Z 35021G27KT 19/10 A2997 RMK A01 T01930098  RH  054%=      5-min Rain = 0
KREE 252211Z 35024KT 19/10 A2997 RMK A01 T01920098  RH  054%=      5-min Rain = 0
KREE 252212Z 35022KT 19/10 A2997 RMK A01 T01910099  RH  055%=      5-min Rain = 0
KREE 252213Z 35023KT 19/10 A2997 RMK A01 T01910099  RH  055%=      5-min Rain = 0
KREE 252214Z 36020G25KT 19/10 A2997 RMK A01 T01900100  RH  056%=      5-min Rain = 0
KREE 252215Z 35022G28KT 19/10 A2997 RMK A01 T01900099  RH  055%=      5-min Rain = 0
KREE 252216Z 35022G27KT 19/10 A2997 RMK A01 T01900098  RH  055%=      5-min Rain = 0
KREE 252217Z 35024KT 19/10 A2997 RMK A01 T01890098  RH  055%=      5-min Rain = 0
KREE 252218Z 35022G28KT 19/10 A2997 RMK A01 T01880097  RH  056%=      5-min Rain = 0
KREE 252219Z 36021G26KT 19/10 A2997 RMK A01 T01870098  RH  056%=      5-min Rain = 0
KREE 252220Z 36021G28KT 19/10 A2997 RMK A01 T01870098  RH  056%=      5-min Rain = 0
KREE 252221Z 35023G29KT 19/10 A2997 RMK A01 T01870098  RH  056%=      5-min Rain = 0
KREE 252222Z 36023G30KT 19/10 A2997 RMK A01 T01870097  RH  056%=      5-min Rain = 0
KREE 252223Z 36021G26KT 19/10 A2997 RMK A01 T01870097  RH  056%=      5-min Rain = 0
KREE 252224Z 36022G28KT 19/10 A2997 RMK A01 T01870098  RH  056%=      5-min Rain = 0
KREE 252225Z 00020G25KT 19/10 A2998 RMK A01 T01870098  RH  056%=      5-min Rain = 0
KREE 252226Z 36016G21KT 19/10 A2998 RMK A01 T01870098  RH  056%=      5-min Rain = 0
KREE 252227Z 35018G23KT 19/10 A2997 RMK A01 T01880100  RH  056%=      5-min Rain = 0
KREE 252228Z 35022G28KT 19/10 A2997 RMK A01 T01880098  RH  056%=      5-min Rain = 0
KREE 252229Z 35022KT 19/10 A2997 RMK A01 T01870098  RH  056%=      5-min Rain = 0
KREE 252230Z 35021G26KT 19/10 A2997 RMK A01 T01870098  RH  056%=      5-min Rain = 0
KREE 252231Z 36020G28KT 19/10 A2997 RMK A01 T01870098  RH  057%=      5-min Rain = 0
KREE 252232Z 01020G25KT 19/10 A2998 RMK A01 T01870100  RH  057%=      5-min Rain = 0
KREE 252233Z 00020G25KT 19/10 A2998 RMK A01 T01870100  RH  057%=      5-min Rain = 0
KREE 252234Z 36021KT 19/10 A2997 RMK A01 T01880099  RH  056%=      5-min Rain = 0
KREE 252235Z 00019G25KT 19/10 A2997 RMK A01 T01880100  RH  057%=      5-min Rain = 0
KREE 252236Z 01022G27KT 19/10 A2997 RMK A01 T01880100  RH  056%=      5-min Rain = 0
KREE 252237Z 00019G26KT 19/10 A2997 RMK A01 T01880100  RH  056%=      5-min Rain = 0
KREE 252238Z 00022G28KT 19/10 A2997 RMK A01 T01880100  RH  056%=      5-min Rain = 0
KREE 252239Z 00019G25KT 19/10 A2997 RMK A01 T01880099  RH  056%=      5-min Rain = 0
KREE 252240Z 01017G22KT 19/10 A2997 RMK A01 T01880101  RH  057%=      5-min Rain = 0
KREE 252241Z 01021G28KT 19/10 A2997 RMK A01 T01880100  RH  056%=      5-min Rain = 0
KREE 252242Z 01020KT 19/10 A2997 RMK A01 T01870099  RH  056%=      5-min Rain = 0
KREE 252243Z 00021G26KT 19/10 A2997 RMK A01 T01860100  RH  057%=      5-min Rain = 0
KREE 252244Z 01023G29KT 19/10 A2997 RMK A01 T01860100  RH  057%=      5-min Rain = 0
KREE 252245Z 00022G28KT 19/10 A2997 RMK A01 T01850100  RH  058%=      5-min Rain = 0
KREE 252246Z 00022G27KT 19/10 A2997 RMK A01 T01850099  RH  057%=      5-min Rain = 0
KREE 252247Z 01021G27KT 18/10 A2997 RMK A01 T01840100  RH  058%=      5-min Rain = 0
KREE 252248Z 01024G30KT 18/10 A2997 RMK A01 T01840100  RH  058%=      5-min Rain = 0
KREE 252249Z 01023G28KT 18/10 A2997 RMK A01 T01840100  RH  058%=      5-min Rain = 0
KREE 252250Z 01019G24KT 18/10 A2997 RMK A01 T01830101  RH  058%=      5-min Rain = 0
KREE 252251Z 01016G22KT 18/10 A2997 RMK A01 T01830102  RH  059%=      5-min Rain = 0
KREE 252252Z 01019G26KT 18/10 A2997 RMK A01 T01840103  RH  059%=      5-min Rain = 0
KREE 252253Z 01020G28KT 19/10 A2997 RMK A01 T01850101  RH  058%=      5-min Rain = 0
KREE 252254Z 01022G28KT 19/10 A2997 RMK A01 T01850100  RH  058%=      5-min Rain = 0
KREE 252255Z 01023KT 18/10 A2997 RMK A01 T01830099  RH  058%=      5-min Rain = 0
KREE 252256Z 02020G25KT 18/10 A2997 RMK A01 T01830100  RH  058%=      5-min Rain = 0
KREE 252257Z 02020G27KT 18/10 A2997 RMK A01 T01820100  RH  058%=      5-min Rain = 0
KREE 252258Z 02021G29KT 18/10 A2997 RMK A01 T01820099  RH  058%=      5-min Rain = 0
KREE 252259Z 01020G29KT 18/10 A2997 RMK A01 T01820098  RH  058%=      5-min Rain = 0
KREE 252300Z 01020G25KT 18/10 A2997 RMK A01 T01810098  RH  058%=      5-min Rain = 0
KREE 252301Z 01019G24KT 18/10 A2997 RMK A01 T01810099  RH  059%=      5-min Rain = 0
KREE 252302Z 01018G23KT 18/10 A2997 RMK A01 T01810099  RH  059%=      5-min Rain = 0
KREE 252303Z 01022G27KT 18/10 A2997 RMK A01 T01810098  RH  059%=      5-min Rain = 0
KREE 252304Z 01019G26KT 18/10 A2997 RMK A01 T01800099  RH  059%=      5-min Rain = 0
KREE 252305Z 01020KT 18/10 A2997 RMK A01 T01790099  RH  059%=      5-min Rain = 0
KREE 252306Z 01023G28KT 18/10 A2997 RMK A01 T01790099  RH  059%=      5-min Rain = 0
KREE 252307Z 01020G27KT 18/10 A2997 RMK A01 T01780099  RH  060%=      5-min Rain = 0
KREE 252308Z 02017G22KT 18/10 A2997 RMK A01 T01780100  RH  060%=      5-min Rain = 0
KREE 252309Z 02016G22KT 18/10 A2997 RMK A01 T01780101  RH  060%=      5-min Rain = 0
KREE 252310Z 02022KT 18/10 A2997 RMK A01 T01790100  RH  060%=      5-min Rain = 0
KREE 252311Z 02020G25KT 18/10 A2996 RMK A01 T01790099  RH  060%=      5-min Rain = 0
KREE 252312Z 01017G23KT 18/10 A2996 RMK A01 T01780100  RH  060%=      5-min Rain = 0
KREE 252313Z 02020G25KT 18/10 A2996 RMK A01 T01780100  RH  060%=      5-min Rain = 0
KREE 252314Z 02021G28KT 18/10 A2996 RMK A01 T01780100  RH  060%=      5-min Rain = 0
KREE 252315Z 02023G28KT 18/10 A2996 RMK A01 T01780098  RH  060%=      5-min Rain = 0
KREE 252316Z 02021G27KT 18/10 A2996 RMK A01 T01770099  RH  060%=      5-min Rain = 0
KREE 252317Z 02022G29KT 18/10 A2996 RMK A01 T01770099  RH  060%=      5-min Rain = 0
KREE 252318Z 02020G25KT 18/10 A2996 RMK A01 T01770099  RH  060%=      5-min Rain = 0
KREE 252319Z 02018G23KT 18/10 A2996 RMK A01 T01760100  RH  061%=      5-min Rain = 0
KREE 252320Z 03022G27KT 18/10 A2996 RMK A01 T01760100  RH  061%=      5-min Rain = 0
KREE 252321Z 03022G28KT 18/10 A2995 RMK A01 T01760100  RH  061%=      5-min Rain = 0
KREE 252322Z 03022G27KT 18/10 A2995 RMK A01 T01760101  RH  061%=      5-min Rain = 0
KREE 252323Z 03019G25KT 18/10 A2995 RMK A01 T01760100  RH  061%=      5-min Rain = 0
KREE 252324Z 03022G28KT 18/10 A2995 RMK A01 T01760100  RH  061%=      5-min Rain = 0
KREE 252325Z 03022G28KT 18/10 A2995 RMK A01 T01760099  RH  061%=      5-min Rain = 0
KREE 252326Z 03024G29KT 18/10 A2995 RMK A01 T01760099  RH  061%=      5-min Rain = 0
KREE 252327Z 04021KT 18/10 A2995 RMK A01 T01750099  RH  061%=      5-min Rain = 0
KREE 252328Z 04018KT 17/10 A2994 RMK A01 T01740103  RH  063%=      5-min Rain = 0
KREE 252329Z 04019G24KT 17/10 A2994 RMK A01 T01740104  RH  064%=      5-min Rain = 0
KREE 252330Z 04021G26KT 17/10 A2994 RMK A01 T01730103  RH  064%=      5-min Rain = 0
KREE 252331Z 04019G25KT 17/11 A2994 RMK A01 T01720106  RH  065%=      5-min Rain = 0
KREE 252332Z 04018G25KT 17/11 A2994 RMK A01 T01710107  RH  066%=      5-min Rain = 0
KREE 252333Z 04019G25KT 17/11 A2994 RMK A01 T01700109  RH  068%=      5-min Rain = 0
KREE 252334Z 04019G25KT 17/11 A2994 RMK A01 T01690108  RH  067%=      5-min Rain = 0
KREE 252335Z 05020G25KT 17/11 A2995 RMK A01 T01680107  RH  067%=      5-min Rain = 0
KREE 252336Z 05018KT 17/11 A2994 RMK A01 T01680108  RH  068%=      5-min Rain = 0
KREE 252337Z 05017G24KT 17/11 A2994 RMK A01 T01680112  RH  069%=      5-min Rain = 0
KREE 252338Z 05020G26KT 17/11 A2994 RMK A01 T01670108  RH  068%=      5-min Rain = 0
KREE 252339Z 05017KT 17/11 A2994 RMK A01 T01670107  RH  068%=      5-min Rain = 0
KREE 252340Z 05018KT 17/11 A2994 RMK A01 T01670108  RH  068%=      5-min Rain = 0
KREE 252341Z 05018G23KT 17/11 A2994 RMK A01 T01670107  RH  067%=      5-min Rain = 0
KREE 252342Z 05015G20KT 17/11 A2994 RMK A01 T01680108  RH  068%=      5-min Rain = 0
KREE 252343Z 05016G22KT 17/11 A2994 RMK A01 T01680107  RH  067%=      5-min Rain = 0
KREE 252344Z 05018KT 17/11 A2994 RMK A01 T01690107  RH  067%=      5-min Rain = 0
KREE 252345Z 05017KT 17/11 A2994 RMK A01 T01690105  RH  066%=      5-min Rain = 0
KREE 252346Z 05016G23KT 17/11 A2995 RMK A01 T01700106  RH  066%=      5-min Rain = 0
KREE 252347Z 05016G21KT 17/11 A2995 RMK A01 T01700105  RH  066%=      5-min Rain = 0
KREE 252348Z 05016G23KT 17/11 A2995 RMK A01 T01700105  RH  065%=      5-min Rain = 0
KREE 252349Z 04015KT 17/11 A2996 RMK A01 T01700107  RH  066%=      5-min Rain = 0
KREE 252350Z 03014KT 17/11 A2996 RMK A01 T01700107  RH  066%=      5-min Rain = 0
KREE 252351Z 02014KT 17/11 A2996 RMK A01 T01710109  RH  067%=      5-min Rain = 0
KREE 252352Z 02014KT 17/11 A2996 RMK A01 T01710109  RH  067%=      5-min Rain = 0
KREE 252353Z 01013G18KT 17/11 A2997 RMK A01 T01710110  RH  067%=      5-min Rain = 0
KREE 252354Z 00013KT 17/11 A2997 RMK A01 T01710112  RH  068%=      5-min Rain = 0
KREE 252355Z 36013KT 17/11 A2997 RMK A01 T01710112  RH  068%=      5-min Rain = 0
KREE 252356Z 36012KT 17/11 A2997 RMK A01 T01720112  RH  068%=      5-min Rain = 0
KREE 252357Z 35011G16KT 17/11 A2997 RMK A01 T01730113  RH  068%=      5-min Rain = 0
KREE 252358Z 01015KT 17/11 A2997 RMK A01 T01730111  RH  067%=      5-min Rain = 0
KREE 252359Z 01014KT 17/11 A2997 RMK A01 T01730110  RH  066%=      5-min Rain = 0
KREE 260000Z 01016KT 17/11 A2998 RMK A01 T01730111  RH  067%=      5-min Rain = 0
KREE 260001Z 01014KT 17/11 A2998 RMK A01 T01720111  RH  067%=      5-min Rain = 0
KREE 260002Z 01014KT 17/11 A2998 RMK A01 T01720111  RH  068%=      5-min Rain = 0
KREE 260003Z 01013KT 17/11 A2998 RMK A01 T01710112  RH  068%=      5-min Rain = 0
KREE 260004Z 01014G21KT 17/11 A2998 RMK A01 T01710112  RH  068%=      5-min Rain = 0
KREE 260005Z 01016KT 17/11 A2998 RMK A01 T01710112  RH  068%=      5-min Rain = 0
KREE 260006Z 01013KT 17/11 A2998 RMK A01 T01700109  RH  067%=      5-min Rain = 0
KREE 260007Z 01010KT 17/11 A2998 RMK A01 T01700112  RH  069%=      5-min Rain = 0
KREE 260008Z 35009KT 17/12 A2998 RMK A01 T01700116  RH  071%=      5-min Rain = 0
KREE 260009Z 36010G15KT 17/12 A2998 RMK A01 T01700117  RH  071%=      5-min Rain = 0
KREE 260010Z 00013KT 17/12 A2998 RMK A01 T01690117  RH  071%=      5-min Rain = 0
KREE 260011Z 01013KT 17/12 A2998 RMK A01 T01690118  RH  072%=      5-min Rain = 0
KREE 260012Z 00012KT 17/12 A2998 RMK A01 T01690118  RH  072%=      5-min Rain = 0
KREE 260013Z 00015KT 17/12 A2998 RMK A01 T01690118  RH  072%=      5-min Rain = 0
KREE 260014Z 00013KT 17/12 A2998 RMK A01 T01700118  RH  072%=      5-min Rain = 0
KREE 260015Z 00014KT 17/12 A2998 RMK A01 T01700118  RH  071%=      5-min Rain = 0
KREE 260016Z 00016KT 17/12 A2998 RMK A01 T01710117  RH  071%=      5-min Rain = 0
KREE 260017Z 01014G19KT 17/12 A2998 RMK A01 T01710118  RH  071%=      5-min Rain = 0
KREE 260018Z 00015KT 17/12 A2998 RMK A01 T01710117  RH  070%=      5-min Rain = 0
KREE 260019Z 00011KT 17/12 A2998 RMK A01 T01720118  RH  070%=      5-min Rain = 0
KREE 260020Z 00015G20KT 17/12 A2998 RMK A01 T01740119  RH  070%=      5-min Rain = 0
KREE 260021Z 01015KT 17/12 A2998 RMK A01 T01730117  RH  069%=      5-min Rain = 0
KREE 260022Z 01013KT 17/12 A2998 RMK A01 T01720115  RH  069%=      5-min Rain = 0
KREE 260023Z 01015G20KT 17/12 A2998 RMK A01 T01720117  RH  070%=      5-min Rain = 0
KREE 260024Z 01015KT 17/12 A2998 RMK A01 T01710115  RH  069%=      5-min Rain = 0
KREE 260025Z 01014KT 17/12 A2998 RMK A01 T01700117  RH  071%=      5-min Rain = 0
KREE 260026Z 00016KT 17/12 A2998 RMK A01 T01700117  RH  071%=      5-min Rain = 0
KREE 260027Z 01016G22KT 17/12 A2998 RMK A01 T01710116  RH  070%=      5-min Rain = 0
KREE 260028Z 01017KT 17/12 A2998 RMK A01 T01710115  RH  070%=      5-min Rain = 0
KREE 260029Z 02016KT 17/11 A2999 RMK A01 T01710114  RH  069%=      5-min Rain = 0
KREE 260030Z 02015KT 17/12 A2999 RMK A01 T01710115  RH  070%=      5-min Rain = 0
KREE 260031Z 01014G19KT 17/12 A2999 RMK A01 T01710116  RH  070%=      5-min Rain = 0
KREE 260032Z 01017KT 17/12 A2999 RMK A01 T01710115  RH  069%=      5-min Rain = 0
KREE 260033Z 02014KT 17/12 A2999 RMK A01 T01700116  RH  070%=      5-min Rain = 0
KREE 260034Z 02013KT 17/12 A2999 RMK A01 T01700116  RH  070%=      5-min Rain = 0
KREE 260035Z 01013G18KT 17/12 A2999 RMK A01 T01710117  RH  070%=      5-min Rain = 0
KREE 260036Z 02014G19KT 17/12 A2999 RMK A01 T01720116  RH  070%=      5-min Rain = 0
KREE 260037Z 01011KT 17/12 A2999 RMK A01 T01710117  RH  070%=      5-min Rain = 0
KREE 260038Z 02013G18KT 17/12 A2999 RMK A01 T01720117  RH  070%=      5-min Rain = 0
KREE 260039Z 01016KT 17/12 A2999 RMK A01 T01720115  RH  069%=      5-min Rain = 0
KREE 260040Z 02012KT 17/12 A2999 RMK A01 T01710117  RH  070%=      5-min Rain = 0
KREE 260041Z 02013KT 17/12 A2999 RMK A01 T01700117  RH  071%=      5-min Rain = 0
KREE 260042Z 02011KT 17/12 A2999 RMK A01 T01700116  RH  071%=      5-min Rain = 0
KREE 260043Z 01013KT 17/12 A2999 RMK A01 T01700116  RH  070%=      5-min Rain = 0
KREE 260044Z 02010G15KT 17/12 A2999 RMK A01 T01700116  RH  070%=      5-min Rain = 0
KREE 260045Z 03015KT 17/12 A2999 RMK A01 T01700115  RH  070%=      5-min Rain = 0
KREE 260046Z 03013KT 17/11 A2999 RMK A01 T01690114  RH  070%=      5-min Rain = 0
KREE 260047Z 03014KT 17/11 A2999 RMK A01 T01680114  RH  070%=      5-min Rain = 0
KREE 260048Z 03013KT 17/11 A2999 RMK A01 T01670114  RH  071%=      5-min Rain = 0
KREE 260049Z 02013KT 17/11 A2999 RMK A01 T01670114  RH  071%=      5-min Rain = 0
KREE 260050Z 02012KT 17/12 A2999 RMK A01 T01660115  RH  071%=      5-min Rain = 0
KREE 260051Z 03012G17KT 17/11 A2999 RMK A01 T01660112  RH  070%=      5-min Rain = 0
KREE 260052Z 02014KT 17/11 A2999 RMK A01 T01660111  RH  070%=      5-min Rain = 0
KREE 260053Z 02013KT 17/11 A2999 RMK A01 T01660111  RH  070%=      5-min Rain = 0
KREE 260054Z 02013KT 17/11 A2999 RMK A01 T01660112  RH  071%=      5-min Rain = 0
KREE 260055Z 02013KT 17/11 A2999 RMK A01 T01660114  RH  071%=      5-min Rain = 0
KREE 260056Z 02011KT 17/11 A2999 RMK A01 T01660114  RH  071%=      5-min Rain = 0
KREE 260057Z 02010KT 17/11 A2999 RMK A01 T01660113  RH  071%=      5-min Rain = 0
KREE 260058Z 02011KT 17/11 A2999 RMK A01 T01660114  RH  071%=      5-min Rain = 0
KREE 260059Z 02011KT 17/11 A2999 RMK A01 T01660113  RH  071%=      5-min Rain = 0
KREE 260100Z 02010KT 17/11 A2999 RMK A01 T01660112  RH  071%=      5-min Rain = 0
KREE 260101Z 02010KT 17/11 A2999 RMK A01 T01660112  RH  070%=      5-min Rain = 0
KREE 260102Z 02010KT 17/11 A2999 RMK A01 T01650112  RH  070%=      5-min Rain = 0
KREE 260103Z 02011KT 17/11 A2999 RMK A01 T01650110  RH  070%=      5-min Rain = 0
KREE 260104Z 02012KT 17/11 A2999 RMK A01 T01650107  RH  068%=      5-min Rain = 0
KREE 260105Z 02012KT 16/11 A2999 RMK A01 T01640106  RH  068%=      5-min Rain = 0
KREE 260106Z 02012KT 16/11 A2999 RMK A01 T01640106  RH  068%=      5-min Rain = 0
KREE 260107Z 02012KT 16/11 A2999 RMK A01 T01640105  RH  068%=      5-min Rain = 0
KREE 260108Z 02011KT 16/11 A2999 RMK A01 T01640105  RH  068%=      5-min Rain = 0
KREE 260109Z 02010KT 16/11 A2999 RMK A01 T01630105  RH  068%=      5-min Rain = 0
KREE 260110Z 02009KT 16/11 A2999 RMK A01 T01630106  RH  069%=      5-min Rain = 0
KREE 260111Z 02009KT 16/11 A2999 RMK A01 T01630107  RH  069%=      5-min Rain = 0
KREE 260112Z 03009KT 16/11 A2999 RMK A01 T01630107  RH  070%=      5-min Rain = 0
KREE 260113Z 03006KT 16/11 A2999 RMK A01 T01620108  RH  070%=      5-min Rain = 0
KREE 260114Z 03007KT 16/11 A30 RMK A01 T01620109  RH  071%=      5-min Rain = 0
KREE 260115Z 03008KT 16/11 A30 RMK A01 T01620108  RH  070%=      5-min Rain = 0
KREE 260116Z 04008KT 16/11 A30 RMK A01 T01620108  RH  070%=      5-min Rain = 0
KREE 260117Z 04008KT 16/11 A30 RMK A01 T01610108  RH  071%=      5-min Rain = 0
KREE 260118Z 04008KT 16/11 A30 RMK A01 T01600108  RH  071%=      5-min Rain = 0
KREE 260119Z 04008KT 16/11 A30 RMK A01 T01600107  RH  071%=      5-min Rain = 0
KREE 260120Z 04008KT 16/11 A30 RMK A01 T01600108  RH  071%=      5-min Rain = 0
KREE 260121Z 04009KT 16/11 A30 RMK A01 T01590107  RH  071%=      5-min Rain = 0
KREE 260122Z 04009KT 16/11 A30 RMK A01 T01590107  RH  071%=      5-min Rain = 0
KREE 260123Z 04007KT 16/11 A30 RMK A01 T01580108  RH  072%=      5-min Rain = 0
KREE 260124Z 04007KT 16/11 A30 RMK A01 T01580108  RH  072%=      5-min Rain = 0
KREE 260125Z 04007KT 16/11 A30 RMK A01 T01580109  RH  072%=      5-min Rain = 0
KREE 260126Z 04007KT 16/11 A30 RMK A01 T01580109  RH  073%=      5-min Rain = 0
KREE 260127Z 03006KT 16/11 A30 RMK A01 T01580109  RH  073%=      5-min Rain = 0
KREE 260128Z 03005KT 16/11 A30 RMK A01 T01580110  RH  073%=      5-min Rain = 0
KREE 260129Z 02006KT 16/11 A30 RMK A01 T01570110  RH  073%=      5-min Rain = 0
KREE 260130Z 02006KT 16/11 A30 RMK A01 T01570110  RH  073%=      5-min Rain = 0
KREE 260131Z 03007KT 16/11 A30 RMK A01 T01570109  RH  073%=      5-min Rain = 0
KREE 260132Z 03006KT 16/11 A30 RMK A01 T01570109  RH  073%=      5-min Rain = 0
KREE 260133Z 02005KT 16/11 A30 RMK A01 T01560109  RH  073%=      5-min Rain = 0
KREE 260134Z 02005KT 16/11 A3001 RMK A01 T01560109  RH  074%=      5-min Rain = 0
KREE 260135Z 01005KT 16/11 A3001 RMK A01 T01550109  RH  074%=      5-min Rain = 0
KREE 260136Z 35007KT 15/11 A3001 RMK A01 T01540110  RH  075%=      5-min Rain = 0
KREE 260137Z 35009KT 15/11 A3001 RMK A01 T01530108  RH  075%=      5-min Rain = 0
KREE 260138Z 34010KT 15/11 A3001 RMK A01 T01520108  RH  075%=      5-min Rain = 0
KREE 260139Z 34010KT 15/11 A3002 RMK A01 T01510108  RH  075%=      5-min Rain = 0
KREE 260140Z 35010KT 15/11 A3002 RMK A01 T01510109  RH  076%=      5-min Rain = 0
KREE 260141Z 35009KT 15/11 A3002 RMK A01 T01510109  RH  076%=      5-min Rain = 0
KREE 260142Z 35009KT 15/11 A3002 RMK A01 T01510109  RH  076%=      5-min Rain = 0
KREE 260143Z 36009KT 15/11 A3002 RMK A01 T01510109  RH  076%=      5-min Rain = 0
KREE 260144Z 36008KT 15/11 A3002 RMK A01 T01510109  RH  076%=      5-min Rain = 0
KREE 260145Z 00008KT 15/11 A3002 RMK A01 T01510110  RH  076%=      5-min Rain = 0
KREE 260146Z 00007KT 15/11 A3002 RMK A01 T01510110  RH  076%=      5-min Rain = 0
KREE 260147Z 01008KT 15/11 A3002 RMK A01 T01510110  RH  076%=      5-min Rain = 0
KREE 260148Z 01006KT 15/11 A3002 RMK A01 T01500110  RH  077%=      5-min Rain = 0
KREE 260149Z 01007KT 15/11 A3002 RMK A01 T01500110  RH  077%=      5-min Rain = 0
KREE 260150Z 01007KT 15/11 A3002 RMK A01 T01490110  RH  077%=      5-min Rain = 0
KREE 260151Z 01007KT 15/11 A3002 RMK A01 T01490110  RH  077%=      5-min Rain = 0
KREE 260152Z 01007KT 15/11 A3002 RMK A01 T01490110  RH  078%=      5-min Rain = 0
KREE 260153Z 01007KT 15/11 A3002 RMK A01 T01490110  RH  077%=      5-min Rain = 0
KREE 260154Z 01007KT 15/11 A3002 RMK A01 T01480110  RH  078%=      5-min Rain = 0
KREE 260155Z 01007KT 15/11 A3002 RMK A01 T01470109  RH  078%=      5-min Rain = 0
KREE 260156Z 01007KT 15/11 A3002 RMK A01 T01470109  RH  078%=      5-min Rain = 0
KREE 260157Z 01007KT 15/11 A3002 RMK A01 T01460109  RH  078%=      5-min Rain = 0
KREE 260158Z 01006KT 15/11 A3002 RMK A01 T01460108  RH  078%=      5-min Rain = 0
KREE 260159Z 01007KT 15/11 A3002 RMK A01 T01460108  RH  078%=      5-min Rain = 0
KREE 260200Z 01008KT 15/11 A3002 RMK A01 T01450108  RH  078%=      5-min Rain = 0
KREE 260201Z 01007KT 15/11 A3002 RMK A01 T01450108  RH  078%=      5-min Rain = 0
KREE 260202Z 01008KT 15/11 A3002 RMK A01 T01450108  RH  078%=      5-min Rain = 0
KREE 260203Z 01008KT 14/11 A3002 RMK A01 T01440107  RH  078%=      5-min Rain = 0
KREE 260204Z 01008KT 14/11 A3002 RMK A01 T01440107  RH  078%=      5-min Rain = 0
KREE 260205Z 01008KT 14/11 A3003 RMK A01 T01440106  RH  078%=      5-min Rain = 0
KREE 260206Z 01008KT 15/11 A3003 RMK A01 T01450107  RH  078%=      5-min Rain = 0
KREE 260207Z 01007KT 15/11 A3002 RMK A01 T01450107  RH  078%=      5-min Rain = 0
KREE 260208Z 01007KT 15/11 A3002 RMK A01 T01450107  RH  078%=      5-min Rain = 0
KREE 260209Z 01007KT 15/11 A3003 RMK A01 T01450107  RH  078%=      5-min Rain = 0
KREE 260210Z 01007KT 15/11 A3003 RMK A01 T01450107  RH  078%=      5-min Rain = 0
KREE 260211Z 01007KT 14/11 A3002 RMK A01 T01440107  RH  078%=      5-min Rain = 0
KREE 260212Z 01006KT 14/11 A3002 RMK A01 T01440107  RH  079%=      5-min Rain = 0
KREE 260213Z 01007KT 14/11 A3002 RMK A01 T01430107  RH  079%=      5-min Rain = 0
KREE 260214Z 01007KT 14/11 A3002 RMK A01 T01430108  RH  079%=      5-min Rain = 0
KREE 260215Z 01007KT 14/11 A3003 RMK A01 T01420108  RH  080%=      5-min Rain = 0
KREE 260216Z 01007KT 14/11 A3003 RMK A01 T01420108  RH  080%=      5-min Rain = 0
KREE 260217Z 01007KT 14/11 A3003 RMK A01 T01410108  RH  081%=      5-min Rain = 0
KREE 260218Z 01007KT 14/11 A3003 RMK A01 T01410108  RH  081%=      5-min Rain = 0
KREE 260219Z 01007KT 14/11 A3003 RMK A01 T01410109  RH  081%=      5-min Rain = 0
KREE 260220Z 00007KT 14/11 A3003 RMK A01 T01410109  RH  081%=      5-min Rain = 0
KREE 260221Z 01007KT 14/11 A3003 RMK A01 T01410109  RH  081%=      5-min Rain = 0
KREE 260222Z 01007KT 14/11 A3003 RMK A01 T01400109  RH  082%=      5-min Rain = 0
KREE 260223Z 01007KT 14/11 A3003 RMK A01 T01400109  RH  082%=      5-min Rain = 0
KREE 260224Z 01007KT 14/11 A3003 RMK A01 T01400109  RH  082%=      5-min Rain = 0
KREE 260225Z 01007KT 14/11 A3003 RMK A01 T01400109  RH  082%=      5-min Rain = 0
KREE 260226Z 01007KT 14/11 A3003 RMK A01 T01400109  RH  082%=      5-min Rain = 0
KREE 260227Z 01007KT 14/11 A3003 RMK A01 T01400109  RH  081%=      5-min Rain = 0
KREE 260228Z 00008KT 14/11 A3003 RMK A01 T01400109  RH  081%=      5-min Rain = 0
KREE 260229Z 01007KT 14/11 A3003 RMK A01 T01410109  RH  081%=      5-min Rain = 0
KREE 260230Z 01007KT 14/11 A3003 RMK A01 T01410109  RH  081%=      5-min Rain = 0
KREE 260231Z 01009KT 14/11 A3003 RMK A01 T01410109  RH  081%=      5-min Rain = 0
KREE 260232Z 01008KT 14/11 A3003 RMK A01 T01420109  RH  080%=      5-min Rain = 0
KREE 260233Z 00009KT 14/11 A3003 RMK A01 T01430109  RH  080%=      5-min Rain = 0
KREE 260234Z 00010KT 14/11 A3003 RMK A01 T01430109  RH  080%=      5-min Rain = 0
KREE 260235Z 01009KT 14/11 A3003 RMK A01 T01430109  RH  080%=      5-min Rain = 0
KREE 260236Z 01010KT 14/11 A3003 RMK A01 T01430110  RH  081%=      5-min Rain = 0
KREE 260237Z 01009KT 14/11 A3003 RMK A01 T01430110  RH  081%=      5-min Rain = 0
KREE 260238Z 01010KT 14/11 A3003 RMK A01 T01430110  RH  081%=      5-min Rain = 0
KREE 260239Z 01009KT 14/11 A3003 RMK A01 T01430111  RH  081%=      5-min Rain = 0
KREE 260240Z 01009KT 14/11 A3003 RMK A01 T01420111  RH  082%=      5-min Rain = 0
KREE 260241Z 00009KT 14/11 A3003 RMK A01 T01410112  RH  082%=      5-min Rain = 0
KREE 260242Z 36009KT 14/11 A3003 RMK A01 T01410112  RH  082%=      5-min Rain = 0
KREE 260243Z 35010KT 14/11 A3003 RMK A01 T01410112  RH  083%=      5-min Rain = 0
KREE 260244Z 35010KT 14/11 A3004 RMK A01 T01410112  RH  082%=      5-min Rain = 0
KREE 260245Z 35010KT 14/11 A3004 RMK A01 T01410112  RH  083%=      5-min Rain = 0
KREE 260246Z 35008KT 14/11 A3004 RMK A01 T01410112  RH  083%=      5-min Rain = 0
KREE 260247Z 35009KT 14/11 A3004 RMK A01 T01400113  RH  083%=      5-min Rain = 0
KREE 260248Z 35008KT 14/11 A3004 RMK A01 T01400113  RH  084%=      5-min Rain = 0
KREE 260249Z 35008KT 14/11 A3004 RMK A01 T01400113  RH  084%=      5-min Rain = 0
KREE 260250Z 35007KT 14/11 A3004 RMK A01 T01400113  RH  084%=      5-min Rain = 0
KREE 260251Z 35007KT 14/11 A3004 RMK A01 T01390113  RH  084%=      5-min Rain = 0
KREE 260252Z 35007KT 14/11 A3004 RMK A01 T01390113  RH  084%=      5-min Rain = 0
KREE 260253Z 35006KT 14/11 A3004 RMK A01 T01390113  RH  084%=      5-min Rain = 0
KREE 260254Z 36006KT 14/11 A3004 RMK A01 T01380113  RH  084%=      5-min Rain = 0
KREE 260255Z 00005KT 14/11 A3004 RMK A01 T01380112  RH  085%=      5-min Rain = 0
KREE 260256Z 01005KT 14/11 A3004 RMK A01 T01370112  RH  085%=      5-min Rain = 0
KREE 260257Z 01006KT 14/11 A3004 RMK A01 T01370112  RH  085%=      5-min Rain = 0
KREE 260258Z 00005KT 14/11 A3004 RMK A01 T01360112  RH  085%=      5-min Rain = 0
KREE 260259Z 00005KT 14/11 A3004 RMK A01 T01350112  RH  086%=      5-min Rain = 0
KREE 260300Z 00005KT 14/11 A3004 RMK A01 T01350112  RH  086%=      5-min Rain = 0
KREE 260301Z 00005KT 13/11 A3004 RMK A01 T01340111  RH  086%=      5-min Rain = 0
KREE 260302Z 35005KT 13/11 A3004 RMK A01 T01330111  RH  086%=      5-min Rain = 0
KREE 260303Z 35005KT 13/11 A3004 RMK A01 T01330111  RH  087%=      5-min Rain = 0
KREE 260304Z 35004KT 13/11 A3004 RMK A01 T01320111  RH  087%=      5-min Rain = 0
KREE 260305Z 35005KT 13/11 A3004 RMK A01 T01320111  RH  087%=      5-min Rain = 0
KREE 260306Z 35005KT 13/11 A3004 RMK A01 T01310111  RH  087%=      5-min Rain = 0
KREE 260307Z 35004KT 13/11 A3004 RMK A01 T01310111  RH  087%=      5-min Rain = 0
KREE 260308Z 35004KT 13/11 A3004 RMK A01 T01310110  RH  087%=      5-min Rain = 0
KREE 260309Z 35004KT 13/11 A3004 RMK A01 T01300110  RH  087%=      5-min Rain = 0
KREE 260310Z 34004KT 13/11 A3004 RMK A01 T01300110  RH  087%=      5-min Rain = 0
KREE 260311Z 34004KT 13/11 A3004 RMK A01 T01300110  RH  088%=      5-min Rain = 0
KREE 260312Z 34004KT 13/11 A3005 RMK A01 T01300109  RH  087%=      5-min Rain = 0
KREE 260313Z 35004KT 13/11 A3005 RMK A01 T01300109  RH  087%=      5-min Rain = 0
KREE 260314Z 35004KT 13/11 A3005 RMK A01 T01300109  RH  087%=      5-min Rain = 0
KREE 260315Z 35005KT 13/11 A3005 RMK A01 T01290109  RH  087%=      5-min Rain = 0
KREE 260316Z 35005KT 13/11 A3005 RMK A01 T01290109  RH  088%=      5-min Rain = 0
KREE 260317Z 35004KT 13/11 A3005 RMK A01 T01300109  RH  087%=      5-min Rain = 0
KREE 260318Z 34004KT 13/11 A3005 RMK A01 T01300108  RH  087%=      5-min Rain = 0
KREE 260319Z 34003KT 13/11 A3005 RMK A01 T01300108  RH  087%=      5-min Rain = 0
KREE 260320Z 35003KT 13/11 A3005 RMK A01 T01300108  RH  087%=      5-min Rain = 0
KREE 260321Z 35003KT 13/11 A3005 RMK A01 T01300108  RH  087%=      5-min Rain = 0
KREE 260322Z 35003KT 13/11 A3005 RMK A01 T01300108  RH  087%=      5-min Rain = 0
KREE 260323Z 35003KT 13/11 A3005 RMK A01 T01300108  RH  087%=      5-min Rain = 0
KREE 260324Z 35004KT 13/11 A3005 RMK A01 T01300108  RH  087%=      5-min Rain = 0
KREE 260325Z 35004KT 13/11 A3005 RMK A01 T01290107  RH  087%=      5-min Rain = 0
KREE 260326Z 35004KT 13/11 A3005 RMK A01 T01290107  RH  087%=      5-min Rain = 0
KREE 260327Z 35004KT 13/11 A3005 RMK A01 T01280107  RH  087%=      5-min Rain = 0
KREE 260328Z 34004KT 13/11 A3005 RMK A01 T01280107  RH  087%=      5-min Rain = 0
KREE 260329Z 34004KT 13/11 A3005 RMK A01 T01280107  RH  087%=      5-min Rain = 0
KREE 260330Z 34004KT 13/11 A3006 RMK A01 T01280106  RH  087%=      5-min Rain = 0
KREE 260331Z 33003KT 13/11 A3006 RMK A01 T01280106  RH  087%=      5-min Rain = 0
KREE 260332Z 33003KT 13/11 A3006 RMK A01 T01270105  RH  087%=      5-min Rain = 0
KREE 260333Z 33003KT 13/11 A3006 RMK A01 T01270106  RH  087%=      5-min Rain = 0
KREE 260334Z 33004KT 13/11 A3006 RMK A01 T01270105  RH  087%=      5-min Rain = 0
KREE 260335Z 33004KT 13/11 A3006 RMK A01 T01270105  RH  087%=      5-min Rain = 0
KREE 260336Z 33004KT 13/11 A3006 RMK A01 T01270105  RH  087%=      5-min Rain = 0
KREE 260337Z 33004KT 13/11 A3006 RMK A01 T01270105  RH  087%=      5-min Rain = 0
KREE 260338Z 33005KT 13/11 A3006 RMK A01 T01270105  RH  087%=      5-min Rain = 0
KREE 260339Z 33005KT 13/11 A3006 RMK A01 T01270105  RH  086%=      5-min Rain = 0
KREE 260340Z 33005KT 13/10 A3006 RMK A01 T01260104  RH  086%=      5-min Rain = 0
KREE 260341Z 33005KT 13/10 A3006 RMK A01 T01260104  RH  086%=      5-min Rain = 0
KREE 260342Z 33005KT 13/10 A3006 RMK A01 T01260104  RH  087%=      5-min Rain = 0
KREE 260343Z 34005KT 13/10 A3006 RMK A01 T01260104  RH  087%=      5-min Rain = 0
KREE 260344Z 34005KT 13/11 A3006 RMK A01 T01260105  RH  087%=      5-min Rain = 0
KREE 260345Z 34004KT 13/11 A3006 RMK A01 T01260105  RH  087%=      5-min Rain = 0
KREE 260346Z 34004KT 13/11 A3006 RMK A01 T01270105  RH  087%=      5-min Rain = 0
KREE 260347Z 33004KT 13/11 A3006 RMK A01 T01270105  RH  086%=      5-min Rain = 0
KREE 260348Z 33004KT 13/11 A3006 RMK A01 T01280105  RH  086%=      5-min Rain = 0
KREE 260349Z 33004KT 13/11 A3006 RMK A01 T01280105  RH  086%=      5-min Rain = 0
KREE 260350Z 33004KT 13/11 A3006 RMK A01 T01280105  RH  086%=      5-min Rain = 0
KREE 260351Z 33004KT 13/10 A3006 RMK A01 T01280104  RH  085%=      5-min Rain = 0
KREE 260352Z 32004KT 13/10 A3006 RMK A01 T01280104  RH  085%=      5-min Rain = 0
KREE 260353Z 32003KT 13/10 A3006 RMK A01 T01280104  RH  085%=      5-min Rain = 0
KREE 260354Z 32003KT 13/10 A3006 RMK A01 T01270103  RH  086%=      5-min Rain = 0
KREE 260355Z 32004KT 13/10 A3006 RMK A01 T01270104  RH  086%=      5-min Rain = 0
KREE 260356Z 32004KT 13/10 A3006 RMK A01 T01260104  RH  086%=      5-min Rain = 0
KREE 260357Z 32004KT 13/10 A3006 RMK A01 T01260104  RH  086%=      5-min Rain = 0
KREE 260358Z 32004KT 13/10 A3006 RMK A01 T01260104  RH  086%=      5-min Rain = 0
KREE 260359Z 32004KT 13/10 A3006 RMK A01 T01260103  RH  086%=      5-min Rain = 0
KREE 260400Z 32004KT 13/10 A3006 RMK A01 T01260103  RH  086%=      5-min Rain = 0
KREE 260401Z 31004KT 13/10 A3006 RMK A01 T01260103  RH  086%=      5-min Rain = 0
KREE 260402Z 32004KT 13/10 A3006 RMK A01 T01250103  RH  086%=      5-min Rain = 0
KREE 260403Z 32004KT 13/10 A3006 RMK A01 T01250103  RH  087%=      5-min Rain = 0
KREE 260404Z 32005KT 13/10 A3006 RMK A01 T01250103  RH  087%=      5-min Rain = 0
KREE 260405Z 33005KT 12/10 A3006 RMK A01 T01240103  RH  087%=      5-min Rain = 0
KREE 260406Z 33005KT 12/10 A3006 RMK A01 T01240103  RH  087%=      5-min Rain = 0
KREE 260407Z 33005KT 12/10 A3006 RMK A01 T01240103  RH  087%=      5-min Rain = 0
KREE 260408Z 34005KT 12/10 A3006 RMK A01 T01240103  RH  087%=      5-min Rain = 0
KREE 260409Z 34005KT 12/10 A3006 RMK A01 T01240103  RH  087%=      5-min Rain = 0
KREE 260410Z 34005KT 12/10 A3006 RMK A01 T01240103  RH  087%=      5-min Rain = 0
KREE 260411Z 34005KT 12/10 A3006 RMK A01 T01240103  RH  087%=      5-min Rain = 0
KREE 260412Z 34005KT 12/10 A3006 RMK A01 T01240102  RH  087%=      5-min Rain = 0
KREE 260413Z 34005KT 12/10 A3006 RMK A01 T01230102  RH  087%=      5-min Rain = 0
KREE 260414Z 34005KT 12/10 A3006 RMK A01 T01230102  RH  087%=      5-min Rain = 0
KREE 260415Z 34005KT 12/10 A3006 RMK A01 T01230101  RH  087%=      5-min Rain = 0
KREE 260416Z 34005KT 12/10 A3006 RMK A01 T01230101  RH  087%=      5-min Rain = 0
KREE 260417Z 34005KT 12/10 A3006 RMK A01 T01220101  RH  087%=      5-min Rain = 0
KREE 260418Z 34005KT 12/10 A3007 RMK A01 T01220101  RH  087%=      5-min Rain = 0
KREE 260419Z 34005KT 12/10 A3007 RMK A01 T01220100  RH  087%=      5-min Rain = 0
KREE 260420Z 34004KT 12/10 A3007 RMK A01 T01210100  RH  087%=      5-min Rain = 0
KREE 260421Z 34004KT 12/10 A3007 RMK A01 T01210100  RH  087%=      5-min Rain = 0
KREE 260422Z 34004KT 12/10 A3007 RMK A01 T01200099  RH  087%=      5-min Rain = 0
KREE 260423Z 34004KT 12/10 A3007 RMK A01 T01200099  RH  087%=      5-min Rain = 0
KREE 260424Z 34004KT 12/10 A3007 RMK A01 T01200100  RH  087%=      5-min Rain = 0
KREE 260425Z 34004KT 12/10 A3007 RMK A01 T01200099  RH  087%=      5-min Rain = 0
KREE 260426Z 34004KT 12/10 A3007 RMK A01 T01200099  RH  087%=      5-min Rain = 0
KREE 260427Z 35004KT 12/10 A3007 RMK A01 T01200099  RH  087%=      5-min Rain = 0
KREE 260428Z 34004KT 12/10 A3007 RMK A01 T01200099  RH  087%=      5-min Rain = 0
KREE 260429Z 34004KT 12/10 A3007 RMK A01 T01200099  RH  087%=      5-min Rain = 0
KREE 260430Z 34004KT 12/10 A3007 RMK A01 T01200099  RH  087%=      5-min Rain = 0
KREE 260431Z 34004KT 12/10 A3007 RMK A01 T01200099  RH  087%=      5-min Rain = 0
KREE 260432Z 34004KT 12/10 A3007 RMK A01 T01200099  RH  087%=      5-min Rain = 0
KREE 260433Z 34004KT 12/10 A3007 RMK A01 T01200099  RH  087%=      5-min Rain = 0
KREE 260434Z 34004KT 12/10 A3006 RMK A01 T01200099  RH  087%=      5-min Rain = 0
KREE 260435Z 34004KT 12/10 A3006 RMK A01 T01190098  RH  087%=      5-min Rain = 0
KREE 260436Z 34004KT 12/10 A3006 RMK A01 T01190098  RH  087%=      5-min Rain = 0
KREE 260437Z 34004KT 12/10 A3006 RMK A01 T01190098  RH  087%=      5-min Rain = 0
KREE 260438Z 34004KT 12/10 A3007 RMK A01 T01190099  RH  087%=      5-min Rain = 0
KREE 260439Z 34004KT 12/10 A3007 RMK A01 T01190099  RH  087%=      5-min Rain = 0
KREE 260440Z 34005KT 12/10 A3007 RMK A01 T01190098  RH  087%=      5-min Rain = 0
KREE 260441Z 34005KT 12/10 A3007 RMK A01 T01180098  RH  087%=      5-min Rain = 0
KREE 260442Z 33005KT 12/10 A3007 RMK A01 T01180098  RH  088%=      5-min Rain = 0
KREE 260443Z 33005KT 12/10 A3007 RMK A01 T01180098  RH  088%=      5-min Rain = 0
KREE 260444Z 33006KT 12/10 A3007 RMK A01 T01180098  RH  088%=      5-min Rain = 0
KREE 260445Z 33006KT 12/10 A3007 RMK A01 T01170097  RH  088%=      5-min Rain = 0
KREE 260446Z 33006KT 12/10 A3007 RMK A01 T01160097  RH  088%=      5-min Rain = 0
KREE 260447Z 32007KT 12/10 A3007 RMK A01 T01160096  RH  088%=      5-min Rain = 0
KREE 260448Z 32007KT 12/10 A3007 RMK A01 T01150097  RH  088%=      5-min Rain = 0
KREE 260449Z 32008KT 12/10 A3007 RMK A01 T01150097  RH  089%=      5-min Rain = 0
KREE 260450Z 32007KT 12/10 A3007 RMK A01 T01150097  RH  089%=      5-min Rain = 0
KREE 260451Z 32007KT 12/10 A3007 RMK A01 T01150097  RH  089%=      5-min Rain = 0
KREE 260452Z 32007KT 12/10 A3007 RMK A01 T01150097  RH  089%=      5-min Rain = 0
KREE 260453Z 32007KT 12/10 A3007 RMK A01 T01150097  RH  089%=      5-min Rain = 0
KREE 260454Z 32007KT 12/10 A3007 RMK A01 T01150097  RH  089%=      5-min Rain = 0
KREE 260455Z 32007KT 12/10 A3007 RMK A01 T01150096  RH  089%=      5-min Rain = 0
KREE 260456Z 32007KT 11/10 A3007 RMK A01 T01140096  RH  088%=      5-min Rain = 0
KREE 260457Z 32007KT 11/10 A3007 RMK A01 T01140096  RH  089%=      5-min Rain = 0
KREE 260458Z 32007KT 11/10 A3007 RMK A01 T01140096  RH  089%=      5-min Rain = 0
KREE 260459Z 31007KT 11/10 A3007 RMK A01 T01140096  RH  089%=      5-min Rain = 0

Page generated in 0.1264 seconds.